<?xml version="1.0" encoding="UTF-8" standalone="no" ?>
<gpx xmlns="http://www.topografix.com/GPX/1/1" xmlns:xsi="http://www.w3.org/2001/XMLSchema-instance" xsi:schemaLocation="http://www.topografix.com/GPX/1/1 http://www.topografix.com/GPX/1/1/gpx.xsd" version="1.1" creator="VisuGPX - https://www.visugpx.com">
  <metadata>
    <name>RSPFY-Les-Bourbiers</name>
    <desc><![CDATA[boucle de marche nordique au départ du carrefour des Bourbiers entre Gambais et Gambaiseuil.]]></desc>
  </metadata>
  <trk>
    <name><![CDATA[2026-05-07 09:03]]></name>
    <desc><![CDATA[<p>Heure de départ: 09:03 7 mai 2026<br/>Heure d'arrivée: 11:28 7 mai 2026<br/>Distance: 11 km (02:24)<br/>Temps déplacement: 02:11<br/>Vitesse moyenne: 4,55 km/h<br/>Vitesse moyenne mouv.: 4,99 km/h<br/>Vitesse Max.: 7,3 km/h<br/>Altitude minimale: 110 m<br/>Altitude maximale: 190 m<br/>Vitesse de montée: 221,2 m/h<br/>Vitesse de descente: -193,6 m/h<br/>Gain d'altitude: 245 m<br/>Perte d'altitude: -238 m<br/>Temps de montée: 01:06<br/>Temps de descente: 01:14<br/></p><hr align="center" width="480" style="height: 2px; width: 517px"/>]]></desc>
    <trkseg>
      <trkpt lat="48.76464" lon="1.72218">
        <ele>129.1</ele>
        <time>2026-05-07T07:03:49Z</time>
      </trkpt>
      <trkpt lat="48.76455" lon="1.72221">
        <ele>128.2</ele>
        <time>2026-05-07T07:04:00Z</time>
      </trkpt>
      <trkpt lat="48.76457" lon="1.72234">
        <ele>128.3</ele>
        <time>2026-05-07T07:04:09Z</time>
      </trkpt>
      <trkpt lat="48.7646" lon="1.72248">
        <ele>128.7</ele>
        <time>2026-05-07T07:04:19Z</time>
      </trkpt>
      <trkpt lat="48.76469" lon="1.72244">
        <ele>129.6</ele>
        <time>2026-05-07T07:05:37Z</time>
      </trkpt>
      <trkpt lat="48.76474" lon="1.72233">
        <ele>130.3</ele>
        <time>2026-05-07T07:05:48Z</time>
      </trkpt>
      <trkpt lat="48.76482" lon="1.72225">
        <ele>131.1</ele>
        <time>2026-05-07T07:05:57Z</time>
      </trkpt>
      <trkpt lat="48.76492" lon="1.72222">
        <ele>132.1</ele>
        <time>2026-05-07T07:06:06Z</time>
      </trkpt>
      <trkpt lat="48.76501" lon="1.72217">
        <ele>133.1</ele>
        <time>2026-05-07T07:06:14Z</time>
      </trkpt>
      <trkpt lat="48.76509" lon="1.72212">
        <ele>134.3</ele>
        <time>2026-05-07T07:06:24Z</time>
      </trkpt>
      <trkpt lat="48.76517" lon="1.72219">
        <ele>135.4</ele>
        <time>2026-05-07T07:06:35Z</time>
      </trkpt>
      <trkpt lat="48.76521" lon="1.72231">
        <ele>136.1</ele>
        <time>2026-05-07T07:06:43Z</time>
      </trkpt>
      <trkpt lat="48.76524" lon="1.72244">
        <ele>136.5</ele>
        <time>2026-05-07T07:06:51Z</time>
      </trkpt>
      <trkpt lat="48.76527" lon="1.72259">
        <ele>136.9</ele>
        <time>2026-05-07T07:06:58Z</time>
      </trkpt>
      <trkpt lat="48.76531" lon="1.72272">
        <ele>137.3</ele>
        <time>2026-05-07T07:07:05Z</time>
      </trkpt>
      <trkpt lat="48.76536" lon="1.72284">
        <ele>137.9</ele>
        <time>2026-05-07T07:07:12Z</time>
      </trkpt>
      <trkpt lat="48.76539" lon="1.72298">
        <ele>138.3</ele>
        <time>2026-05-07T07:07:20Z</time>
      </trkpt>
      <trkpt lat="48.76543" lon="1.72311">
        <ele>138.9</ele>
        <time>2026-05-07T07:07:28Z</time>
      </trkpt>
      <trkpt lat="48.76546" lon="1.72325">
        <ele>139.7</ele>
        <time>2026-05-07T07:07:36Z</time>
      </trkpt>
      <trkpt lat="48.7655" lon="1.72338">
        <ele>140.4</ele>
        <time>2026-05-07T07:07:44Z</time>
      </trkpt>
      <trkpt lat="48.76553" lon="1.72351">
        <ele>140.8</ele>
        <time>2026-05-07T07:07:52Z</time>
      </trkpt>
      <trkpt lat="48.76558" lon="1.72364">
        <ele>141.1</ele>
        <time>2026-05-07T07:07:59Z</time>
      </trkpt>
      <trkpt lat="48.76561" lon="1.72378">
        <ele>141.4</ele>
        <time>2026-05-07T07:08:07Z</time>
      </trkpt>
      <trkpt lat="48.76565" lon="1.72391">
        <ele>141.7</ele>
        <time>2026-05-07T07:08:14Z</time>
      </trkpt>
      <trkpt lat="48.76569" lon="1.72404">
        <ele>141.7</ele>
        <time>2026-05-07T07:08:22Z</time>
      </trkpt>
      <trkpt lat="48.76573" lon="1.72418">
        <ele>141.6</ele>
        <time>2026-05-07T07:08:31Z</time>
      </trkpt>
      <trkpt lat="48.76576" lon="1.72431">
        <ele>141.6</ele>
        <time>2026-05-07T07:08:39Z</time>
      </trkpt>
      <trkpt lat="48.76579" lon="1.72444">
        <ele>141.7</ele>
        <time>2026-05-07T07:08:47Z</time>
      </trkpt>
      <trkpt lat="48.76583" lon="1.72457">
        <ele>141.1</ele>
        <time>2026-05-07T07:08:55Z</time>
      </trkpt>
      <trkpt lat="48.76587" lon="1.72471">
        <ele>140.2</ele>
        <time>2026-05-07T07:09:03Z</time>
      </trkpt>
      <trkpt lat="48.76591" lon="1.72484">
        <ele>139.4</ele>
        <time>2026-05-07T07:09:10Z</time>
      </trkpt>
      <trkpt lat="48.76594" lon="1.72497">
        <ele>138.6</ele>
        <time>2026-05-07T07:09:17Z</time>
      </trkpt>
      <trkpt lat="48.76598" lon="1.7251">
        <ele>137.8</ele>
        <time>2026-05-07T07:09:24Z</time>
      </trkpt>
      <trkpt lat="48.76602" lon="1.72524">
        <ele>136.9</ele>
        <time>2026-05-07T07:09:31Z</time>
      </trkpt>
      <trkpt lat="48.76605" lon="1.72538">
        <ele>136.1</ele>
        <time>2026-05-07T07:09:38Z</time>
      </trkpt>
      <trkpt lat="48.76611" lon="1.7255">
        <ele>135.4</ele>
        <time>2026-05-07T07:09:45Z</time>
      </trkpt>
      <trkpt lat="48.76619" lon="1.7256">
        <ele>134.7</ele>
        <time>2026-05-07T07:09:52Z</time>
      </trkpt>
      <trkpt lat="48.76628" lon="1.72564">
        <ele>134.4</ele>
        <time>2026-05-07T07:09:59Z</time>
      </trkpt>
      <trkpt lat="48.76638" lon="1.72567">
        <ele>134.2</ele>
        <time>2026-05-07T07:10:06Z</time>
      </trkpt>
      <trkpt lat="48.76646" lon="1.72572">
        <ele>134</ele>
        <time>2026-05-07T07:10:12Z</time>
      </trkpt>
      <trkpt lat="48.76656" lon="1.72576">
        <ele>134</ele>
        <time>2026-05-07T07:10:19Z</time>
      </trkpt>
      <trkpt lat="48.76666" lon="1.72579">
        <ele>134.1</ele>
        <time>2026-05-07T07:10:26Z</time>
      </trkpt>
      <trkpt lat="48.76675" lon="1.72582">
        <ele>134.1</ele>
        <time>2026-05-07T07:10:33Z</time>
      </trkpt>
      <trkpt lat="48.76684" lon="1.72585">
        <ele>133.9</ele>
        <time>2026-05-07T07:10:40Z</time>
      </trkpt>
      <trkpt lat="48.76693" lon="1.72589">
        <ele>133.8</ele>
        <time>2026-05-07T07:10:47Z</time>
      </trkpt>
      <trkpt lat="48.76702" lon="1.72594">
        <ele>133.9</ele>
        <time>2026-05-07T07:10:54Z</time>
      </trkpt>
      <trkpt lat="48.76711" lon="1.72599">
        <ele>134.1</ele>
        <time>2026-05-07T07:11:01Z</time>
      </trkpt>
      <trkpt lat="48.76721" lon="1.72603">
        <ele>134.3</ele>
        <time>2026-05-07T07:11:08Z</time>
      </trkpt>
      <trkpt lat="48.76729" lon="1.72608">
        <ele>134.4</ele>
        <time>2026-05-07T07:11:15Z</time>
      </trkpt>
      <trkpt lat="48.76738" lon="1.72612">
        <ele>134.5</ele>
        <time>2026-05-07T07:11:23Z</time>
      </trkpt>
      <trkpt lat="48.76748" lon="1.72617">
        <ele>134.7</ele>
        <time>2026-05-07T07:11:31Z</time>
      </trkpt>
      <trkpt lat="48.76757" lon="1.72623">
        <ele>134.8</ele>
        <time>2026-05-07T07:11:39Z</time>
      </trkpt>
      <trkpt lat="48.76766" lon="1.72629">
        <ele>134.9</ele>
        <time>2026-05-07T07:11:45Z</time>
      </trkpt>
      <trkpt lat="48.76775" lon="1.72634">
        <ele>135.1</ele>
        <time>2026-05-07T07:11:51Z</time>
      </trkpt>
      <trkpt lat="48.76781" lon="1.72645">
        <ele>135.1</ele>
        <time>2026-05-07T07:11:57Z</time>
      </trkpt>
      <trkpt lat="48.76782" lon="1.72659">
        <ele>135.1</ele>
        <time>2026-05-07T07:12:04Z</time>
      </trkpt>
      <trkpt lat="48.76784" lon="1.72673">
        <ele>135.3</ele>
        <time>2026-05-07T07:12:12Z</time>
      </trkpt>
      <trkpt lat="48.76782" lon="1.72687">
        <ele>135.2</ele>
        <time>2026-05-07T07:12:19Z</time>
      </trkpt>
      <trkpt lat="48.76779" lon="1.72702">
        <ele>135.4</ele>
        <time>2026-05-07T07:12:27Z</time>
      </trkpt>
      <trkpt lat="48.76778" lon="1.72717">
        <ele>135.8</ele>
        <time>2026-05-07T07:12:39Z</time>
      </trkpt>
      <trkpt lat="48.76779" lon="1.72731">
        <ele>136.4</ele>
        <time>2026-05-07T07:12:44Z</time>
      </trkpt>
      <trkpt lat="48.76782" lon="1.72745">
        <ele>137.1</ele>
        <time>2026-05-07T07:12:51Z</time>
      </trkpt>
      <trkpt lat="48.76783" lon="1.7276">
        <ele>137.5</ele>
        <time>2026-05-07T07:12:59Z</time>
      </trkpt>
      <trkpt lat="48.76788" lon="1.72773">
        <ele>138</ele>
        <time>2026-05-07T07:13:07Z</time>
      </trkpt>
      <trkpt lat="48.76784" lon="1.72786">
        <ele>137.7</ele>
        <time>2026-05-07T07:13:14Z</time>
      </trkpt>
      <trkpt lat="48.76779" lon="1.72799">
        <ele>137.2</ele>
        <time>2026-05-07T07:13:21Z</time>
      </trkpt>
      <trkpt lat="48.76775" lon="1.72812">
        <ele>136.8</ele>
        <time>2026-05-07T07:13:28Z</time>
      </trkpt>
      <trkpt lat="48.76773" lon="1.72828">
        <ele>136.7</ele>
        <time>2026-05-07T07:13:35Z</time>
      </trkpt>
      <trkpt lat="48.76773" lon="1.72843">
        <ele>137</ele>
        <time>2026-05-07T07:13:42Z</time>
      </trkpt>
      <trkpt lat="48.76772" lon="1.72858">
        <ele>137.5</ele>
        <time>2026-05-07T07:13:49Z</time>
      </trkpt>
      <trkpt lat="48.7677" lon="1.72872">
        <ele>137.5</ele>
        <time>2026-05-07T07:13:56Z</time>
      </trkpt>
      <trkpt lat="48.76765" lon="1.72885">
        <ele>137.5</ele>
        <time>2026-05-07T07:14:03Z</time>
      </trkpt>
      <trkpt lat="48.7676" lon="1.72899">
        <ele>137.7</ele>
        <time>2026-05-07T07:14:10Z</time>
      </trkpt>
      <trkpt lat="48.76756" lon="1.72913">
        <ele>138.1</ele>
        <time>2026-05-07T07:14:17Z</time>
      </trkpt>
      <trkpt lat="48.76752" lon="1.72925">
        <ele>138.4</ele>
        <time>2026-05-07T07:14:23Z</time>
      </trkpt>
      <trkpt lat="48.76748" lon="1.72938">
        <ele>138.7</ele>
        <time>2026-05-07T07:14:29Z</time>
      </trkpt>
      <trkpt lat="48.76743" lon="1.72951">
        <ele>139.2</ele>
        <time>2026-05-07T07:14:36Z</time>
      </trkpt>
      <trkpt lat="48.76738" lon="1.72963">
        <ele>139.6</ele>
        <time>2026-05-07T07:14:42Z</time>
      </trkpt>
      <trkpt lat="48.76734" lon="1.72976">
        <ele>140.1</ele>
        <time>2026-05-07T07:14:49Z</time>
      </trkpt>
      <trkpt lat="48.76728" lon="1.72987">
        <ele>140.5</ele>
        <time>2026-05-07T07:14:56Z</time>
      </trkpt>
      <trkpt lat="48.76721" lon="1.72997">
        <ele>140.7</ele>
        <time>2026-05-07T07:15:02Z</time>
      </trkpt>
      <trkpt lat="48.76714" lon="1.73006">
        <ele>140.6</ele>
        <time>2026-05-07T07:15:08Z</time>
      </trkpt>
      <trkpt lat="48.76706" lon="1.73017">
        <ele>140.1</ele>
        <time>2026-05-07T07:15:15Z</time>
      </trkpt>
      <trkpt lat="48.76699" lon="1.73027">
        <ele>139.5</ele>
        <time>2026-05-07T07:15:21Z</time>
      </trkpt>
      <trkpt lat="48.76693" lon="1.73038">
        <ele>139.3</ele>
        <time>2026-05-07T07:15:27Z</time>
      </trkpt>
      <trkpt lat="48.76687" lon="1.73049">
        <ele>139.3</ele>
        <time>2026-05-07T07:15:33Z</time>
      </trkpt>
      <trkpt lat="48.76683" lon="1.73062">
        <ele>139.4</ele>
        <time>2026-05-07T07:15:40Z</time>
      </trkpt>
      <trkpt lat="48.76678" lon="1.73075">
        <ele>139.5</ele>
        <time>2026-05-07T07:15:47Z</time>
      </trkpt>
      <trkpt lat="48.76674" lon="1.73089">
        <ele>139.8</ele>
        <time>2026-05-07T07:15:54Z</time>
      </trkpt>
      <trkpt lat="48.76671" lon="1.73104">
        <ele>140.1</ele>
        <time>2026-05-07T07:16:01Z</time>
      </trkpt>
      <trkpt lat="48.76668" lon="1.73118">
        <ele>140.3</ele>
        <time>2026-05-07T07:16:08Z</time>
      </trkpt>
      <trkpt lat="48.76664" lon="1.73133">
        <ele>140.6</ele>
        <time>2026-05-07T07:16:15Z</time>
      </trkpt>
      <trkpt lat="48.7666" lon="1.73147">
        <ele>140.5</ele>
        <time>2026-05-07T07:16:22Z</time>
      </trkpt>
      <trkpt lat="48.76657" lon="1.73161">
        <ele>140.3</ele>
        <time>2026-05-07T07:16:29Z</time>
      </trkpt>
      <trkpt lat="48.76652" lon="1.73176">
        <ele>140.3</ele>
        <time>2026-05-07T07:16:36Z</time>
      </trkpt>
      <trkpt lat="48.76648" lon="1.7319">
        <ele>140.5</ele>
        <time>2026-05-07T07:16:43Z</time>
      </trkpt>
      <trkpt lat="48.76645" lon="1.73205">
        <ele>140.4</ele>
        <time>2026-05-07T07:16:50Z</time>
      </trkpt>
      <trkpt lat="48.76643" lon="1.73219">
        <ele>140.3</ele>
        <time>2026-05-07T07:16:57Z</time>
      </trkpt>
      <trkpt lat="48.76641" lon="1.73234">
        <ele>140.2</ele>
        <time>2026-05-07T07:17:04Z</time>
      </trkpt>
      <trkpt lat="48.7664" lon="1.73249">
        <ele>140.1</ele>
        <time>2026-05-07T07:17:11Z</time>
      </trkpt>
      <trkpt lat="48.7664" lon="1.73264">
        <ele>140.1</ele>
        <time>2026-05-07T07:17:18Z</time>
      </trkpt>
      <trkpt lat="48.7664" lon="1.73278">
        <ele>140</ele>
        <time>2026-05-07T07:17:25Z</time>
      </trkpt>
      <trkpt lat="48.76638" lon="1.73294">
        <ele>139.4</ele>
        <time>2026-05-07T07:17:32Z</time>
      </trkpt>
      <trkpt lat="48.76633" lon="1.73306">
        <ele>138.8</ele>
        <time>2026-05-07T07:17:39Z</time>
      </trkpt>
      <trkpt lat="48.76625" lon="1.73314">
        <ele>138.3</ele>
        <time>2026-05-07T07:17:46Z</time>
      </trkpt>
      <trkpt lat="48.76617" lon="1.7332">
        <ele>137.8</ele>
        <time>2026-05-07T07:17:52Z</time>
      </trkpt>
      <trkpt lat="48.76608" lon="1.73328">
        <ele>137.1</ele>
        <time>2026-05-07T07:18:01Z</time>
      </trkpt>
      <trkpt lat="48.76601" lon="1.73335">
        <ele>136.6</ele>
        <time>2026-05-07T07:18:09Z</time>
      </trkpt>
      <trkpt lat="48.76593" lon="1.73345">
        <ele>136.4</ele>
        <time>2026-05-07T07:18:17Z</time>
      </trkpt>
      <trkpt lat="48.766" lon="1.73355">
        <ele>136.6</ele>
        <time>2026-05-07T07:18:26Z</time>
      </trkpt>
      <trkpt lat="48.76609" lon="1.73363">
        <ele>136.9</ele>
        <time>2026-05-07T07:18:34Z</time>
      </trkpt>
      <trkpt lat="48.76615" lon="1.73375">
        <ele>137.3</ele>
        <time>2026-05-07T07:18:41Z</time>
      </trkpt>
      <trkpt lat="48.76621" lon="1.73387">
        <ele>137.7</ele>
        <time>2026-05-07T07:18:49Z</time>
      </trkpt>
      <trkpt lat="48.76626" lon="1.734">
        <ele>137.9</ele>
        <time>2026-05-07T07:18:57Z</time>
      </trkpt>
      <trkpt lat="48.76632" lon="1.73412">
        <ele>137.9</ele>
        <time>2026-05-07T07:19:05Z</time>
      </trkpt>
      <trkpt lat="48.76638" lon="1.73424">
        <ele>138</ele>
        <time>2026-05-07T07:19:13Z</time>
      </trkpt>
      <trkpt lat="48.76641" lon="1.73437">
        <ele>138.2</ele>
        <time>2026-05-07T07:19:20Z</time>
      </trkpt>
      <trkpt lat="48.76644" lon="1.73451">
        <ele>138.4</ele>
        <time>2026-05-07T07:19:28Z</time>
      </trkpt>
      <trkpt lat="48.76647" lon="1.73464">
        <ele>138.6</ele>
        <time>2026-05-07T07:19:37Z</time>
      </trkpt>
      <trkpt lat="48.76648" lon="1.73479">
        <ele>138.8</ele>
        <time>2026-05-07T07:19:45Z</time>
      </trkpt>
      <trkpt lat="48.76648" lon="1.73494">
        <ele>139.2</ele>
        <time>2026-05-07T07:19:53Z</time>
      </trkpt>
      <trkpt lat="48.7665" lon="1.73508">
        <ele>139.4</ele>
        <time>2026-05-07T07:20:01Z</time>
      </trkpt>
      <trkpt lat="48.76652" lon="1.73523">
        <ele>139.5</ele>
        <time>2026-05-07T07:20:15Z</time>
      </trkpt>
      <trkpt lat="48.76654" lon="1.73536">
        <ele>139.8</ele>
        <time>2026-05-07T07:20:23Z</time>
      </trkpt>
      <trkpt lat="48.76657" lon="1.73549">
        <ele>140.4</ele>
        <time>2026-05-07T07:20:30Z</time>
      </trkpt>
      <trkpt lat="48.76661" lon="1.73563">
        <ele>140.8</ele>
        <time>2026-05-07T07:20:37Z</time>
      </trkpt>
      <trkpt lat="48.76663" lon="1.73578">
        <ele>141</ele>
        <time>2026-05-07T07:20:48Z</time>
      </trkpt>
      <trkpt lat="48.76665" lon="1.73593">
        <ele>141</ele>
        <time>2026-05-07T07:20:57Z</time>
      </trkpt>
      <trkpt lat="48.76666" lon="1.73607">
        <ele>141</ele>
        <time>2026-05-07T07:21:04Z</time>
      </trkpt>
      <trkpt lat="48.76669" lon="1.7362">
        <ele>141.5</ele>
        <time>2026-05-07T07:21:11Z</time>
      </trkpt>
      <trkpt lat="48.76674" lon="1.73632">
        <ele>142.1</ele>
        <time>2026-05-07T07:21:18Z</time>
      </trkpt>
      <trkpt lat="48.76679" lon="1.73644">
        <ele>142.5</ele>
        <time>2026-05-07T07:21:25Z</time>
      </trkpt>
      <trkpt lat="48.76685" lon="1.73657">
        <ele>142.9</ele>
        <time>2026-05-07T07:21:33Z</time>
      </trkpt>
      <trkpt lat="48.76689" lon="1.73671">
        <ele>143</ele>
        <time>2026-05-07T07:21:40Z</time>
      </trkpt>
      <trkpt lat="48.76693" lon="1.73684">
        <ele>143</ele>
        <time>2026-05-07T07:21:47Z</time>
      </trkpt>
      <trkpt lat="48.767" lon="1.73695">
        <ele>143</ele>
        <time>2026-05-07T07:21:54Z</time>
      </trkpt>
      <trkpt lat="48.76705" lon="1.73706">
        <ele>143.3</ele>
        <time>2026-05-07T07:22:01Z</time>
      </trkpt>
      <trkpt lat="48.7671" lon="1.73718">
        <ele>143.4</ele>
        <time>2026-05-07T07:22:08Z</time>
      </trkpt>
      <trkpt lat="48.76716" lon="1.73731">
        <ele>143.6</ele>
        <time>2026-05-07T07:22:15Z</time>
      </trkpt>
      <trkpt lat="48.7672" lon="1.73744">
        <ele>143.9</ele>
        <time>2026-05-07T07:22:22Z</time>
      </trkpt>
      <trkpt lat="48.76726" lon="1.73756">
        <ele>144.4</ele>
        <time>2026-05-07T07:22:29Z</time>
      </trkpt>
      <trkpt lat="48.76731" lon="1.73769">
        <ele>145.2</ele>
        <time>2026-05-07T07:22:36Z</time>
      </trkpt>
      <trkpt lat="48.76735" lon="1.73782">
        <ele>145.7</ele>
        <time>2026-05-07T07:22:43Z</time>
      </trkpt>
      <trkpt lat="48.76741" lon="1.73793">
        <ele>145.9</ele>
        <time>2026-05-07T07:22:49Z</time>
      </trkpt>
      <trkpt lat="48.76746" lon="1.73804">
        <ele>146.1</ele>
        <time>2026-05-07T07:22:56Z</time>
      </trkpt>
      <trkpt lat="48.76752" lon="1.73815">
        <ele>146.7</ele>
        <time>2026-05-07T07:23:03Z</time>
      </trkpt>
      <trkpt lat="48.76758" lon="1.73827">
        <ele>147.4</ele>
        <time>2026-05-07T07:23:11Z</time>
      </trkpt>
      <trkpt lat="48.76764" lon="1.73838">
        <ele>147.9</ele>
        <time>2026-05-07T07:23:19Z</time>
      </trkpt>
      <trkpt lat="48.7677" lon="1.73849">
        <ele>148.5</ele>
        <time>2026-05-07T07:23:26Z</time>
      </trkpt>
      <trkpt lat="48.76777" lon="1.7386">
        <ele>149</ele>
        <time>2026-05-07T07:23:34Z</time>
      </trkpt>
      <trkpt lat="48.76784" lon="1.73869">
        <ele>149.5</ele>
        <time>2026-05-07T07:23:41Z</time>
      </trkpt>
      <trkpt lat="48.76792" lon="1.73877">
        <ele>149.9</ele>
        <time>2026-05-07T07:23:48Z</time>
      </trkpt>
      <trkpt lat="48.768" lon="1.73884">
        <ele>150.1</ele>
        <time>2026-05-07T07:23:55Z</time>
      </trkpt>
      <trkpt lat="48.76807" lon="1.73894">
        <ele>150.1</ele>
        <time>2026-05-07T07:24:02Z</time>
      </trkpt>
      <trkpt lat="48.76815" lon="1.73904">
        <ele>150.2</ele>
        <time>2026-05-07T07:24:09Z</time>
      </trkpt>
      <trkpt lat="48.76821" lon="1.73915">
        <ele>150.4</ele>
        <time>2026-05-07T07:24:16Z</time>
      </trkpt>
      <trkpt lat="48.76829" lon="1.73924">
        <ele>150.4</ele>
        <time>2026-05-07T07:24:23Z</time>
      </trkpt>
      <trkpt lat="48.76834" lon="1.73937">
        <ele>150.8</ele>
        <time>2026-05-07T07:24:31Z</time>
      </trkpt>
      <trkpt lat="48.76839" lon="1.73949">
        <ele>151.5</ele>
        <time>2026-05-07T07:24:39Z</time>
      </trkpt>
      <trkpt lat="48.76846" lon="1.7396">
        <ele>152.1</ele>
        <time>2026-05-07T07:24:47Z</time>
      </trkpt>
      <trkpt lat="48.76852" lon="1.73971">
        <ele>153</ele>
        <time>2026-05-07T07:24:55Z</time>
      </trkpt>
      <trkpt lat="48.76858" lon="1.73984">
        <ele>153.7</ele>
        <time>2026-05-07T07:25:02Z</time>
      </trkpt>
      <trkpt lat="48.76863" lon="1.73997">
        <ele>154.3</ele>
        <time>2026-05-07T07:25:09Z</time>
      </trkpt>
      <trkpt lat="48.7687" lon="1.74006">
        <ele>155.4</ele>
        <time>2026-05-07T07:25:16Z</time>
      </trkpt>
      <trkpt lat="48.76875" lon="1.74018">
        <ele>156.4</ele>
        <time>2026-05-07T07:25:23Z</time>
      </trkpt>
      <trkpt lat="48.7688" lon="1.7403">
        <ele>157.2</ele>
        <time>2026-05-07T07:25:30Z</time>
      </trkpt>
      <trkpt lat="48.76887" lon="1.74039">
        <ele>158.3</ele>
        <time>2026-05-07T07:25:37Z</time>
      </trkpt>
      <trkpt lat="48.76895" lon="1.74048">
        <ele>159.5</ele>
        <time>2026-05-07T07:25:44Z</time>
      </trkpt>
      <trkpt lat="48.76903" lon="1.74056">
        <ele>161</ele>
        <time>2026-05-07T07:25:52Z</time>
      </trkpt>
      <trkpt lat="48.76911" lon="1.74064">
        <ele>162.4</ele>
        <time>2026-05-07T07:26:00Z</time>
      </trkpt>
      <trkpt lat="48.76921" lon="1.74062">
        <ele>163.8</ele>
        <time>2026-05-07T07:26:09Z</time>
      </trkpt>
      <trkpt lat="48.76929" lon="1.74058">
        <ele>164.9</ele>
        <time>2026-05-07T07:26:17Z</time>
      </trkpt>
      <trkpt lat="48.76937" lon="1.74051">
        <ele>165.9</ele>
        <time>2026-05-07T07:26:25Z</time>
      </trkpt>
      <trkpt lat="48.76946" lon="1.74045">
        <ele>167.3</ele>
        <time>2026-05-07T07:26:35Z</time>
      </trkpt>
      <trkpt lat="48.76955" lon="1.74038">
        <ele>168.8</ele>
        <time>2026-05-07T07:26:45Z</time>
      </trkpt>
      <trkpt lat="48.76965" lon="1.74037">
        <ele>170.5</ele>
        <time>2026-05-07T07:26:52Z</time>
      </trkpt>
      <trkpt lat="48.76974" lon="1.74038">
        <ele>172</ele>
        <time>2026-05-07T07:26:59Z</time>
      </trkpt>
      <trkpt lat="48.76984" lon="1.74044">
        <ele>173.4</ele>
        <time>2026-05-07T07:27:09Z</time>
      </trkpt>
      <trkpt lat="48.76992" lon="1.74051">
        <ele>174.8</ele>
        <time>2026-05-07T07:27:19Z</time>
      </trkpt>
      <trkpt lat="48.77001" lon="1.74058">
        <ele>176.2</ele>
        <time>2026-05-07T07:27:29Z</time>
      </trkpt>
      <trkpt lat="48.77009" lon="1.74067">
        <ele>177.6</ele>
        <time>2026-05-07T07:27:37Z</time>
      </trkpt>
      <trkpt lat="48.77017" lon="1.74074">
        <ele>178.7</ele>
        <time>2026-05-07T07:27:45Z</time>
      </trkpt>
      <trkpt lat="48.77026" lon="1.74078">
        <ele>179.8</ele>
        <time>2026-05-07T07:27:54Z</time>
      </trkpt>
      <trkpt lat="48.77023" lon="1.74063">
        <ele>179.3</ele>
        <time>2026-05-07T07:28:00Z</time>
      </trkpt>
      <trkpt lat="48.77019" lon="1.74049">
        <ele>178.9</ele>
        <time>2026-05-07T07:28:06Z</time>
      </trkpt>
      <trkpt lat="48.77017" lon="1.74035">
        <ele>178.8</ele>
        <time>2026-05-07T07:28:12Z</time>
      </trkpt>
      <trkpt lat="48.77015" lon="1.74021">
        <ele>178.9</ele>
        <time>2026-05-07T07:28:18Z</time>
      </trkpt>
      <trkpt lat="48.77014" lon="1.74005">
        <ele>179.3</ele>
        <time>2026-05-07T07:28:24Z</time>
      </trkpt>
      <trkpt lat="48.77012" lon="1.73992">
        <ele>179.8</ele>
        <time>2026-05-07T07:28:30Z</time>
      </trkpt>
      <trkpt lat="48.77012" lon="1.73978">
        <ele>180.6</ele>
        <time>2026-05-07T07:28:36Z</time>
      </trkpt>
      <trkpt lat="48.77014" lon="1.73964">
        <ele>180.5</ele>
        <time>2026-05-07T07:28:42Z</time>
      </trkpt>
      <trkpt lat="48.77018" lon="1.7395">
        <ele>180</ele>
        <time>2026-05-07T07:28:49Z</time>
      </trkpt>
      <trkpt lat="48.77025" lon="1.73942">
        <ele>179.6</ele>
        <time>2026-05-07T07:28:56Z</time>
      </trkpt>
      <trkpt lat="48.77034" lon="1.73936">
        <ele>179.3</ele>
        <time>2026-05-07T07:29:03Z</time>
      </trkpt>
      <trkpt lat="48.77045" lon="1.73932">
        <ele>179.3</ele>
        <time>2026-05-07T07:29:10Z</time>
      </trkpt>
      <trkpt lat="48.77054" lon="1.73929">
        <ele>179.3</ele>
        <time>2026-05-07T07:29:17Z</time>
      </trkpt>
      <trkpt lat="48.77064" lon="1.73924">
        <ele>179.4</ele>
        <time>2026-05-07T07:29:24Z</time>
      </trkpt>
      <trkpt lat="48.77074" lon="1.73921">
        <ele>179.7</ele>
        <time>2026-05-07T07:29:31Z</time>
      </trkpt>
      <trkpt lat="48.77083" lon="1.73917">
        <ele>180</ele>
        <time>2026-05-07T07:29:38Z</time>
      </trkpt>
      <trkpt lat="48.77091" lon="1.73911">
        <ele>179.8</ele>
        <time>2026-05-07T07:29:44Z</time>
      </trkpt>
      <trkpt lat="48.771" lon="1.73905">
        <ele>179.9</ele>
        <time>2026-05-07T07:29:51Z</time>
      </trkpt>
      <trkpt lat="48.77108" lon="1.73898">
        <ele>180.1</ele>
        <time>2026-05-07T07:29:58Z</time>
      </trkpt>
      <trkpt lat="48.77116" lon="1.73889">
        <ele>180.2</ele>
        <time>2026-05-07T07:30:05Z</time>
      </trkpt>
      <trkpt lat="48.77124" lon="1.73881">
        <ele>180.1</ele>
        <time>2026-05-07T07:30:12Z</time>
      </trkpt>
      <trkpt lat="48.77132" lon="1.73873">
        <ele>180.4</ele>
        <time>2026-05-07T07:30:19Z</time>
      </trkpt>
      <trkpt lat="48.77136" lon="1.7386">
        <ele>180.7</ele>
        <time>2026-05-07T07:30:42Z</time>
      </trkpt>
      <trkpt lat="48.77135" lon="1.73845">
        <ele>180.7</ele>
        <time>2026-05-07T07:30:53Z</time>
      </trkpt>
      <trkpt lat="48.77131" lon="1.73831">
        <ele>180.5</ele>
        <time>2026-05-07T07:31:02Z</time>
      </trkpt>
      <trkpt lat="48.77125" lon="1.73818">
        <ele>180.3</ele>
        <time>2026-05-07T07:31:10Z</time>
      </trkpt>
      <trkpt lat="48.7712" lon="1.73805">
        <ele>180</ele>
        <time>2026-05-07T07:31:18Z</time>
      </trkpt>
      <trkpt lat="48.77115" lon="1.73794">
        <ele>180.1</ele>
        <time>2026-05-07T07:31:25Z</time>
      </trkpt>
      <trkpt lat="48.77109" lon="1.73783">
        <ele>180.5</ele>
        <time>2026-05-07T07:31:32Z</time>
      </trkpt>
      <trkpt lat="48.77101" lon="1.73775">
        <ele>180.4</ele>
        <time>2026-05-07T07:31:39Z</time>
      </trkpt>
      <trkpt lat="48.77092" lon="1.73766">
        <ele>180.6</ele>
        <time>2026-05-07T07:31:46Z</time>
      </trkpt>
      <trkpt lat="48.77085" lon="1.73757">
        <ele>181.3</ele>
        <time>2026-05-07T07:31:53Z</time>
      </trkpt>
      <trkpt lat="48.77079" lon="1.73746">
        <ele>182.2</ele>
        <time>2026-05-07T07:32:00Z</time>
      </trkpt>
      <trkpt lat="48.77073" lon="1.73734">
        <ele>182.6</ele>
        <time>2026-05-07T07:32:07Z</time>
      </trkpt>
      <trkpt lat="48.77067" lon="1.73723">
        <ele>183</ele>
        <time>2026-05-07T07:32:14Z</time>
      </trkpt>
      <trkpt lat="48.77061" lon="1.7371">
        <ele>183</ele>
        <time>2026-05-07T07:32:21Z</time>
      </trkpt>
      <trkpt lat="48.77056" lon="1.73698">
        <ele>183</ele>
        <time>2026-05-07T07:32:27Z</time>
      </trkpt>
      <trkpt lat="48.7705" lon="1.73685">
        <ele>183.3</ele>
        <time>2026-05-07T07:32:34Z</time>
      </trkpt>
      <trkpt lat="48.77046" lon="1.73673">
        <ele>183.5</ele>
        <time>2026-05-07T07:32:40Z</time>
      </trkpt>
      <trkpt lat="48.77042" lon="1.73659">
        <ele>183.5</ele>
        <time>2026-05-07T07:32:47Z</time>
      </trkpt>
      <trkpt lat="48.77037" lon="1.73646">
        <ele>183.3</ele>
        <time>2026-05-07T07:32:54Z</time>
      </trkpt>
      <trkpt lat="48.77035" lon="1.73633">
        <ele>183.2</ele>
        <time>2026-05-07T07:33:01Z</time>
      </trkpt>
      <trkpt lat="48.77033" lon="1.73617">
        <ele>183</ele>
        <time>2026-05-07T07:33:09Z</time>
      </trkpt>
      <trkpt lat="48.77031" lon="1.73604">
        <ele>182.8</ele>
        <time>2026-05-07T07:33:15Z</time>
      </trkpt>
      <trkpt lat="48.77027" lon="1.73591">
        <ele>182.3</ele>
        <time>2026-05-07T07:33:21Z</time>
      </trkpt>
      <trkpt lat="48.77024" lon="1.73578">
        <ele>182</ele>
        <time>2026-05-07T07:33:29Z</time>
      </trkpt>
      <trkpt lat="48.7702" lon="1.73564">
        <ele>182</ele>
        <time>2026-05-07T07:33:36Z</time>
      </trkpt>
      <trkpt lat="48.77016" lon="1.7355">
        <ele>181.9</ele>
        <time>2026-05-07T07:33:44Z</time>
      </trkpt>
      <trkpt lat="48.77013" lon="1.73537">
        <ele>181.6</ele>
        <time>2026-05-07T07:33:51Z</time>
      </trkpt>
      <trkpt lat="48.77012" lon="1.73522">
        <ele>181.2</ele>
        <time>2026-05-07T07:33:58Z</time>
      </trkpt>
      <trkpt lat="48.77012" lon="1.73508">
        <ele>180.7</ele>
        <time>2026-05-07T07:34:05Z</time>
      </trkpt>
      <trkpt lat="48.77013" lon="1.73493">
        <ele>180.3</ele>
        <time>2026-05-07T07:34:12Z</time>
      </trkpt>
      <trkpt lat="48.77014" lon="1.73478">
        <ele>180.1</ele>
        <time>2026-05-07T07:34:20Z</time>
      </trkpt>
      <trkpt lat="48.77014" lon="1.73463">
        <ele>179.8</ele>
        <time>2026-05-07T07:34:27Z</time>
      </trkpt>
      <trkpt lat="48.77015" lon="1.73448">
        <ele>179.6</ele>
        <time>2026-05-07T07:34:35Z</time>
      </trkpt>
      <trkpt lat="48.77013" lon="1.73434">
        <ele>179.6</ele>
        <time>2026-05-07T07:34:42Z</time>
      </trkpt>
      <trkpt lat="48.77012" lon="1.73419">
        <ele>179.8</ele>
        <time>2026-05-07T07:34:49Z</time>
      </trkpt>
      <trkpt lat="48.77011" lon="1.73404">
        <ele>180.1</ele>
        <time>2026-05-07T07:34:56Z</time>
      </trkpt>
      <trkpt lat="48.77012" lon="1.7339">
        <ele>180.4</ele>
        <time>2026-05-07T07:35:03Z</time>
      </trkpt>
      <trkpt lat="48.77013" lon="1.73375">
        <ele>181</ele>
        <time>2026-05-07T07:35:11Z</time>
      </trkpt>
      <trkpt lat="48.77014" lon="1.7336">
        <ele>181.5</ele>
        <time>2026-05-07T07:35:19Z</time>
      </trkpt>
      <trkpt lat="48.77013" lon="1.73346">
        <ele>181.8</ele>
        <time>2026-05-07T07:35:26Z</time>
      </trkpt>
      <trkpt lat="48.77011" lon="1.73331">
        <ele>182</ele>
        <time>2026-05-07T07:35:33Z</time>
      </trkpt>
      <trkpt lat="48.77012" lon="1.73317">
        <ele>182</ele>
        <time>2026-05-07T07:35:40Z</time>
      </trkpt>
      <trkpt lat="48.7701" lon="1.73303">
        <ele>182.1</ele>
        <time>2026-05-07T07:35:47Z</time>
      </trkpt>
      <trkpt lat="48.7701" lon="1.73289">
        <ele>182.4</ele>
        <time>2026-05-07T07:35:54Z</time>
      </trkpt>
      <trkpt lat="48.77009" lon="1.73273">
        <ele>182.7</ele>
        <time>2026-05-07T07:36:01Z</time>
      </trkpt>
      <trkpt lat="48.77009" lon="1.73258">
        <ele>182.7</ele>
        <time>2026-05-07T07:36:08Z</time>
      </trkpt>
      <trkpt lat="48.7701" lon="1.73243">
        <ele>182.5</ele>
        <time>2026-05-07T07:36:15Z</time>
      </trkpt>
      <trkpt lat="48.7701" lon="1.73228">
        <ele>182.1</ele>
        <time>2026-05-07T07:36:22Z</time>
      </trkpt>
      <trkpt lat="48.77014" lon="1.73215">
        <ele>181.7</ele>
        <time>2026-05-07T07:36:29Z</time>
      </trkpt>
      <trkpt lat="48.77016" lon="1.732">
        <ele>181.2</ele>
        <time>2026-05-07T07:36:36Z</time>
      </trkpt>
      <trkpt lat="48.77019" lon="1.73186">
        <ele>180.8</ele>
        <time>2026-05-07T07:36:43Z</time>
      </trkpt>
      <trkpt lat="48.77023" lon="1.73174">
        <ele>180.8</ele>
        <time>2026-05-07T07:36:50Z</time>
      </trkpt>
      <trkpt lat="48.77027" lon="1.7316">
        <ele>180.7</ele>
        <time>2026-05-07T07:36:58Z</time>
      </trkpt>
      <trkpt lat="48.7702" lon="1.73169">
        <ele>180.5</ele>
        <time>2026-05-07T07:37:06Z</time>
      </trkpt>
      <trkpt lat="48.7702" lon="1.73183">
        <ele>180.7</ele>
        <time>2026-05-07T07:38:25Z</time>
      </trkpt>
      <trkpt lat="48.77018" lon="1.73197">
        <ele>181.1</ele>
        <time>2026-05-07T07:38:34Z</time>
      </trkpt>
      <trkpt lat="48.77015" lon="1.73212">
        <ele>181.6</ele>
        <time>2026-05-07T07:38:42Z</time>
      </trkpt>
      <trkpt lat="48.77008" lon="1.73221">
        <ele>182</ele>
        <time>2026-05-07T07:38:51Z</time>
      </trkpt>
      <trkpt lat="48.76999" lon="1.73216">
        <ele>181.8</ele>
        <time>2026-05-07T07:38:59Z</time>
      </trkpt>
      <trkpt lat="48.76991" lon="1.73208">
        <ele>181.5</ele>
        <time>2026-05-07T07:39:06Z</time>
      </trkpt>
      <trkpt lat="48.76982" lon="1.73202">
        <ele>181.3</ele>
        <time>2026-05-07T07:39:13Z</time>
      </trkpt>
      <trkpt lat="48.76973" lon="1.73197">
        <ele>181.1</ele>
        <time>2026-05-07T07:39:20Z</time>
      </trkpt>
      <trkpt lat="48.76965" lon="1.73188">
        <ele>180.6</ele>
        <time>2026-05-07T07:39:27Z</time>
      </trkpt>
      <trkpt lat="48.76957" lon="1.73179">
        <ele>180.2</ele>
        <time>2026-05-07T07:39:33Z</time>
      </trkpt>
      <trkpt lat="48.76949" lon="1.7317">
        <ele>180</ele>
        <time>2026-05-07T07:39:40Z</time>
      </trkpt>
      <trkpt lat="48.76942" lon="1.7316">
        <ele>178.9</ele>
        <time>2026-05-07T07:39:46Z</time>
      </trkpt>
      <trkpt lat="48.76936" lon="1.73149">
        <ele>177</ele>
        <time>2026-05-07T07:39:53Z</time>
      </trkpt>
      <trkpt lat="48.76927" lon="1.7314">
        <ele>175.6</ele>
        <time>2026-05-07T07:40:01Z</time>
      </trkpt>
      <trkpt lat="48.76921" lon="1.7313">
        <ele>173.9</ele>
        <time>2026-05-07T07:40:08Z</time>
      </trkpt>
      <trkpt lat="48.76912" lon="1.73125">
        <ele>172.5</ele>
        <time>2026-05-07T07:40:16Z</time>
      </trkpt>
      <trkpt lat="48.76902" lon="1.7312">
        <ele>171.1</ele>
        <time>2026-05-07T07:40:24Z</time>
      </trkpt>
      <trkpt lat="48.76894" lon="1.73116">
        <ele>169.9</ele>
        <time>2026-05-07T07:40:31Z</time>
      </trkpt>
      <trkpt lat="48.76885" lon="1.73113">
        <ele>168.6</ele>
        <time>2026-05-07T07:40:38Z</time>
      </trkpt>
      <trkpt lat="48.76875" lon="1.73109">
        <ele>166.8</ele>
        <time>2026-05-07T07:40:46Z</time>
      </trkpt>
      <trkpt lat="48.76866" lon="1.73107">
        <ele>165.3</ele>
        <time>2026-05-07T07:40:54Z</time>
      </trkpt>
      <trkpt lat="48.76872" lon="1.73095">
        <ele>164.6</ele>
        <time>2026-05-07T07:41:06Z</time>
      </trkpt>
      <trkpt lat="48.76881" lon="1.73092">
        <ele>165.4</ele>
        <time>2026-05-07T07:41:12Z</time>
      </trkpt>
      <trkpt lat="48.76887" lon="1.73081">
        <ele>164.4</ele>
        <time>2026-05-07T07:41:19Z</time>
      </trkpt>
      <trkpt lat="48.76895" lon="1.73073">
        <ele>163.8</ele>
        <time>2026-05-07T07:41:26Z</time>
      </trkpt>
      <trkpt lat="48.76904" lon="1.7307">
        <ele>163.9</ele>
        <time>2026-05-07T07:41:33Z</time>
      </trkpt>
      <trkpt lat="48.76914" lon="1.73066">
        <ele>164</ele>
        <time>2026-05-07T07:41:41Z</time>
      </trkpt>
      <trkpt lat="48.76922" lon="1.73059">
        <ele>163.5</ele>
        <time>2026-05-07T07:41:48Z</time>
      </trkpt>
      <trkpt lat="48.7693" lon="1.73051">
        <ele>163.1</ele>
        <time>2026-05-07T07:41:57Z</time>
      </trkpt>
      <trkpt lat="48.76938" lon="1.73044">
        <ele>162.8</ele>
        <time>2026-05-07T07:42:04Z</time>
      </trkpt>
      <trkpt lat="48.76944" lon="1.73035">
        <ele>162.5</ele>
        <time>2026-05-07T07:42:12Z</time>
      </trkpt>
      <trkpt lat="48.76952" lon="1.73027">
        <ele>162.7</ele>
        <time>2026-05-07T07:42:19Z</time>
      </trkpt>
      <trkpt lat="48.76959" lon="1.73019">
        <ele>163</ele>
        <time>2026-05-07T07:42:27Z</time>
      </trkpt>
      <trkpt lat="48.76968" lon="1.73013">
        <ele>163.5</ele>
        <time>2026-05-07T07:42:35Z</time>
      </trkpt>
      <trkpt lat="48.76976" lon="1.73003">
        <ele>164</ele>
        <time>2026-05-07T07:42:43Z</time>
      </trkpt>
      <trkpt lat="48.76984" lon="1.72996">
        <ele>165.2</ele>
        <time>2026-05-07T07:42:54Z</time>
      </trkpt>
      <trkpt lat="48.76992" lon="1.72987">
        <ele>166.4</ele>
        <time>2026-05-07T07:43:03Z</time>
      </trkpt>
      <trkpt lat="48.77001" lon="1.72981">
        <ele>167.9</ele>
        <time>2026-05-07T07:43:11Z</time>
      </trkpt>
      <trkpt lat="48.7701" lon="1.72975">
        <ele>169.6</ele>
        <time>2026-05-07T07:43:19Z</time>
      </trkpt>
      <trkpt lat="48.77018" lon="1.72969">
        <ele>171.3</ele>
        <time>2026-05-07T07:43:29Z</time>
      </trkpt>
      <trkpt lat="48.77027" lon="1.72964">
        <ele>173.4</ele>
        <time>2026-05-07T07:43:40Z</time>
      </trkpt>
      <trkpt lat="48.77036" lon="1.72962">
        <ele>175.1</ele>
        <time>2026-05-07T07:43:51Z</time>
      </trkpt>
      <trkpt lat="48.77042" lon="1.72951">
        <ele>175.7</ele>
        <time>2026-05-07T07:44:05Z</time>
      </trkpt>
      <trkpt lat="48.7705" lon="1.72944">
        <ele>176.9</ele>
        <time>2026-05-07T07:44:16Z</time>
      </trkpt>
      <trkpt lat="48.77057" lon="1.72935">
        <ele>177.4</ele>
        <time>2026-05-07T07:44:24Z</time>
      </trkpt>
      <trkpt lat="48.77064" lon="1.72926">
        <ele>176.9</ele>
        <time>2026-05-07T07:44:32Z</time>
      </trkpt>
      <trkpt lat="48.77073" lon="1.7292">
        <ele>176.8</ele>
        <time>2026-05-07T07:44:41Z</time>
      </trkpt>
      <trkpt lat="48.77081" lon="1.72911">
        <ele>176.1</ele>
        <time>2026-05-07T07:44:48Z</time>
      </trkpt>
      <trkpt lat="48.7709" lon="1.72901">
        <ele>174.1</ele>
        <time>2026-05-07T07:44:55Z</time>
      </trkpt>
      <trkpt lat="48.771" lon="1.72898">
        <ele>172.5</ele>
        <time>2026-05-07T07:45:01Z</time>
      </trkpt>
      <trkpt lat="48.77109" lon="1.72892">
        <ele>170.7</ele>
        <time>2026-05-07T07:45:09Z</time>
      </trkpt>
      <trkpt lat="48.77116" lon="1.72882">
        <ele>168.8</ele>
        <time>2026-05-07T07:45:19Z</time>
      </trkpt>
      <trkpt lat="48.77125" lon="1.72873">
        <ele>167.4</ele>
        <time>2026-05-07T07:45:26Z</time>
      </trkpt>
      <trkpt lat="48.77133" lon="1.72865">
        <ele>166.4</ele>
        <time>2026-05-07T07:45:31Z</time>
      </trkpt>
      <trkpt lat="48.77142" lon="1.7286">
        <ele>166.6</ele>
        <time>2026-05-07T07:45:35Z</time>
      </trkpt>
      <trkpt lat="48.77152" lon="1.72854">
        <ele>168.6</ele>
        <time>2026-05-07T07:45:42Z</time>
      </trkpt>
      <trkpt lat="48.7716" lon="1.72847">
        <ele>171</ele>
        <time>2026-05-07T07:45:49Z</time>
      </trkpt>
      <trkpt lat="48.77169" lon="1.72841">
        <ele>173.6</ele>
        <time>2026-05-07T07:45:59Z</time>
      </trkpt>
      <trkpt lat="48.77176" lon="1.72832">
        <ele>175.7</ele>
        <time>2026-05-07T07:46:14Z</time>
      </trkpt>
      <trkpt lat="48.77184" lon="1.72825">
        <ele>177.4</ele>
        <time>2026-05-07T07:46:23Z</time>
      </trkpt>
      <trkpt lat="48.77192" lon="1.72816">
        <ele>179.1</ele>
        <time>2026-05-07T07:46:35Z</time>
      </trkpt>
      <trkpt lat="48.772" lon="1.72809">
        <ele>180.1</ele>
        <time>2026-05-07T07:46:45Z</time>
      </trkpt>
      <trkpt lat="48.77208" lon="1.72803">
        <ele>180.5</ele>
        <time>2026-05-07T07:46:52Z</time>
      </trkpt>
      <trkpt lat="48.77216" lon="1.72796">
        <ele>180.8</ele>
        <time>2026-05-07T07:46:58Z</time>
      </trkpt>
      <trkpt lat="48.77225" lon="1.72788">
        <ele>181</ele>
        <time>2026-05-07T07:47:04Z</time>
      </trkpt>
      <trkpt lat="48.77234" lon="1.72781">
        <ele>181</ele>
        <time>2026-05-07T07:47:11Z</time>
      </trkpt>
      <trkpt lat="48.77243" lon="1.72776">
        <ele>181</ele>
        <time>2026-05-07T07:47:18Z</time>
      </trkpt>
      <trkpt lat="48.77243" lon="1.72761">
        <ele>181</ele>
        <time>2026-05-07T07:47:26Z</time>
      </trkpt>
      <trkpt lat="48.7724" lon="1.72747">
        <ele>181</ele>
        <time>2026-05-07T07:51:47Z</time>
      </trkpt>
      <trkpt lat="48.77236" lon="1.72735">
        <ele>181</ele>
        <time>2026-05-07T07:51:56Z</time>
      </trkpt>
      <trkpt lat="48.77235" lon="1.72721">
        <ele>180.9</ele>
        <time>2026-05-07T07:52:06Z</time>
      </trkpt>
      <trkpt lat="48.77234" lon="1.72706">
        <ele>180.3</ele>
        <time>2026-05-07T07:52:17Z</time>
      </trkpt>
      <trkpt lat="48.77232" lon="1.72692">
        <ele>179.7</ele>
        <time>2026-05-07T07:52:25Z</time>
      </trkpt>
      <trkpt lat="48.77232" lon="1.72677">
        <ele>179.3</ele>
        <time>2026-05-07T07:52:33Z</time>
      </trkpt>
      <trkpt lat="48.77231" lon="1.72662">
        <ele>179.1</ele>
        <time>2026-05-07T07:52:41Z</time>
      </trkpt>
      <trkpt lat="48.77227" lon="1.72648">
        <ele>179.1</ele>
        <time>2026-05-07T07:52:48Z</time>
      </trkpt>
      <trkpt lat="48.77222" lon="1.72636">
        <ele>179</ele>
        <time>2026-05-07T07:52:55Z</time>
      </trkpt>
      <trkpt lat="48.77215" lon="1.72626">
        <ele>178.9</ele>
        <time>2026-05-07T07:53:02Z</time>
      </trkpt>
      <trkpt lat="48.77206" lon="1.72618">
        <ele>178.9</ele>
        <time>2026-05-07T07:53:09Z</time>
      </trkpt>
      <trkpt lat="48.77198" lon="1.72613">
        <ele>179</ele>
        <time>2026-05-07T07:53:16Z</time>
      </trkpt>
      <trkpt lat="48.77189" lon="1.72605">
        <ele>178.9</ele>
        <time>2026-05-07T07:53:24Z</time>
      </trkpt>
      <trkpt lat="48.77181" lon="1.72598">
        <ele>179</ele>
        <time>2026-05-07T07:53:32Z</time>
      </trkpt>
      <trkpt lat="48.77173" lon="1.72592">
        <ele>179.2</ele>
        <time>2026-05-07T07:53:39Z</time>
      </trkpt>
      <trkpt lat="48.77163" lon="1.72586">
        <ele>179.4</ele>
        <time>2026-05-07T07:53:46Z</time>
      </trkpt>
      <trkpt lat="48.77155" lon="1.72579">
        <ele>179.3</ele>
        <time>2026-05-07T07:53:53Z</time>
      </trkpt>
      <trkpt lat="48.77146" lon="1.72573">
        <ele>179.2</ele>
        <time>2026-05-07T07:54:00Z</time>
      </trkpt>
      <trkpt lat="48.77137" lon="1.72566">
        <ele>179.1</ele>
        <time>2026-05-07T07:54:07Z</time>
      </trkpt>
      <trkpt lat="48.77128" lon="1.72558">
        <ele>179.3</ele>
        <time>2026-05-07T07:54:14Z</time>
      </trkpt>
      <trkpt lat="48.77119" lon="1.72551">
        <ele>179.4</ele>
        <time>2026-05-07T07:54:21Z</time>
      </trkpt>
      <trkpt lat="48.77111" lon="1.72542">
        <ele>179.5</ele>
        <time>2026-05-07T07:54:28Z</time>
      </trkpt>
      <trkpt lat="48.77103" lon="1.72535">
        <ele>179.9</ele>
        <time>2026-05-07T07:54:35Z</time>
      </trkpt>
      <trkpt lat="48.77093" lon="1.72529">
        <ele>180.5</ele>
        <time>2026-05-07T07:54:43Z</time>
      </trkpt>
      <trkpt lat="48.77085" lon="1.72521">
        <ele>181</ele>
        <time>2026-05-07T07:54:50Z</time>
      </trkpt>
      <trkpt lat="48.77076" lon="1.72515">
        <ele>180.8</ele>
        <time>2026-05-07T07:54:57Z</time>
      </trkpt>
      <trkpt lat="48.77068" lon="1.72505">
        <ele>180.9</ele>
        <time>2026-05-07T07:55:04Z</time>
      </trkpt>
      <trkpt lat="48.77059" lon="1.72498">
        <ele>180.9</ele>
        <time>2026-05-07T07:55:11Z</time>
      </trkpt>
      <trkpt lat="48.77051" lon="1.7249">
        <ele>180.4</ele>
        <time>2026-05-07T07:55:19Z</time>
      </trkpt>
      <trkpt lat="48.77042" lon="1.72485">
        <ele>179.8</ele>
        <time>2026-05-07T07:55:26Z</time>
      </trkpt>
      <trkpt lat="48.77033" lon="1.72478">
        <ele>179.2</ele>
        <time>2026-05-07T07:55:34Z</time>
      </trkpt>
      <trkpt lat="48.77024" lon="1.72474">
        <ele>178.5</ele>
        <time>2026-05-07T07:55:43Z</time>
      </trkpt>
      <trkpt lat="48.77017" lon="1.72465">
        <ele>177.3</ele>
        <time>2026-05-07T07:55:50Z</time>
      </trkpt>
      <trkpt lat="48.77008" lon="1.72461">
        <ele>175.9</ele>
        <time>2026-05-07T07:55:58Z</time>
      </trkpt>
      <trkpt lat="48.77003" lon="1.7245">
        <ele>174.7</ele>
        <time>2026-05-07T07:56:05Z</time>
      </trkpt>
      <trkpt lat="48.76994" lon="1.72448">
        <ele>173.2</ele>
        <time>2026-05-07T07:56:15Z</time>
      </trkpt>
      <trkpt lat="48.76987" lon="1.72439">
        <ele>172.1</ele>
        <time>2026-05-07T07:56:23Z</time>
      </trkpt>
      <trkpt lat="48.76979" lon="1.72431">
        <ele>171</ele>
        <time>2026-05-07T07:56:31Z</time>
      </trkpt>
      <trkpt lat="48.7697" lon="1.72424">
        <ele>169.6</ele>
        <time>2026-05-07T07:56:40Z</time>
      </trkpt>
      <trkpt lat="48.76962" lon="1.72414">
        <ele>168.1</ele>
        <time>2026-05-07T07:56:48Z</time>
      </trkpt>
      <trkpt lat="48.76955" lon="1.72405">
        <ele>166.6</ele>
        <time>2026-05-07T07:56:56Z</time>
      </trkpt>
      <trkpt lat="48.76947" lon="1.72398">
        <ele>165.4</ele>
        <time>2026-05-07T07:57:03Z</time>
      </trkpt>
      <trkpt lat="48.76939" lon="1.72389">
        <ele>164.4</ele>
        <time>2026-05-07T07:57:12Z</time>
      </trkpt>
      <trkpt lat="48.76931" lon="1.72382">
        <ele>163.3</ele>
        <time>2026-05-07T07:57:21Z</time>
      </trkpt>
      <trkpt lat="48.76923" lon="1.72373">
        <ele>162.4</ele>
        <time>2026-05-07T07:57:28Z</time>
      </trkpt>
      <trkpt lat="48.76914" lon="1.72366">
        <ele>161.8</ele>
        <time>2026-05-07T07:57:36Z</time>
      </trkpt>
      <trkpt lat="48.76906" lon="1.7236">
        <ele>161.2</ele>
        <time>2026-05-07T07:57:45Z</time>
      </trkpt>
      <trkpt lat="48.76898" lon="1.72352">
        <ele>160.7</ele>
        <time>2026-05-07T07:57:53Z</time>
      </trkpt>
      <trkpt lat="48.7689" lon="1.72343">
        <ele>160.1</ele>
        <time>2026-05-07T07:58:01Z</time>
      </trkpt>
      <trkpt lat="48.76882" lon="1.72335">
        <ele>159.7</ele>
        <time>2026-05-07T07:58:08Z</time>
      </trkpt>
      <trkpt lat="48.76874" lon="1.72327">
        <ele>159.6</ele>
        <time>2026-05-07T07:58:15Z</time>
      </trkpt>
      <trkpt lat="48.76866" lon="1.7232">
        <ele>159.2</ele>
        <time>2026-05-07T07:58:22Z</time>
      </trkpt>
      <trkpt lat="48.76857" lon="1.72312">
        <ele>158.7</ele>
        <time>2026-05-07T07:58:29Z</time>
      </trkpt>
      <trkpt lat="48.76849" lon="1.72304">
        <ele>158.2</ele>
        <time>2026-05-07T07:58:36Z</time>
      </trkpt>
      <trkpt lat="48.7684" lon="1.72296">
        <ele>157.9</ele>
        <time>2026-05-07T07:58:43Z</time>
      </trkpt>
      <trkpt lat="48.76832" lon="1.72288">
        <ele>157.5</ele>
        <time>2026-05-07T07:58:50Z</time>
      </trkpt>
      <trkpt lat="48.76824" lon="1.7228">
        <ele>157.3</ele>
        <time>2026-05-07T07:58:57Z</time>
      </trkpt>
      <trkpt lat="48.76815" lon="1.72273">
        <ele>156.8</ele>
        <time>2026-05-07T07:59:04Z</time>
      </trkpt>
      <trkpt lat="48.76807" lon="1.72265">
        <ele>156.5</ele>
        <time>2026-05-07T07:59:11Z</time>
      </trkpt>
      <trkpt lat="48.76798" lon="1.72256">
        <ele>156.3</ele>
        <time>2026-05-07T07:59:18Z</time>
      </trkpt>
      <trkpt lat="48.7679" lon="1.72249">
        <ele>155.9</ele>
        <time>2026-05-07T07:59:25Z</time>
      </trkpt>
      <trkpt lat="48.76782" lon="1.72242">
        <ele>155.3</ele>
        <time>2026-05-07T07:59:32Z</time>
      </trkpt>
      <trkpt lat="48.76774" lon="1.72234">
        <ele>154.6</ele>
        <time>2026-05-07T07:59:40Z</time>
      </trkpt>
      <trkpt lat="48.76767" lon="1.72225">
        <ele>153.8</ele>
        <time>2026-05-07T07:59:47Z</time>
      </trkpt>
      <trkpt lat="48.76759" lon="1.72216">
        <ele>152.7</ele>
        <time>2026-05-07T07:59:55Z</time>
      </trkpt>
      <trkpt lat="48.76751" lon="1.72209">
        <ele>151.6</ele>
        <time>2026-05-07T08:00:04Z</time>
      </trkpt>
      <trkpt lat="48.76742" lon="1.72201">
        <ele>150.7</ele>
        <time>2026-05-07T08:00:12Z</time>
      </trkpt>
      <trkpt lat="48.76734" lon="1.72194">
        <ele>149.8</ele>
        <time>2026-05-07T08:00:21Z</time>
      </trkpt>
      <trkpt lat="48.76739" lon="1.72181">
        <ele>150.2</ele>
        <time>2026-05-07T08:00:46Z</time>
      </trkpt>
      <trkpt lat="48.76743" lon="1.72169">
        <ele>150.5</ele>
        <time>2026-05-07T08:00:56Z</time>
      </trkpt>
      <trkpt lat="48.7675" lon="1.72158">
        <ele>151</ele>
        <time>2026-05-07T08:01:05Z</time>
      </trkpt>
      <trkpt lat="48.76759" lon="1.72157">
        <ele>151.6</ele>
        <time>2026-05-07T08:01:12Z</time>
      </trkpt>
      <trkpt lat="48.76769" lon="1.72155">
        <ele>152.1</ele>
        <time>2026-05-07T08:01:20Z</time>
      </trkpt>
      <trkpt lat="48.7678" lon="1.72156">
        <ele>152.7</ele>
        <time>2026-05-07T08:01:28Z</time>
      </trkpt>
      <trkpt lat="48.76789" lon="1.72155">
        <ele>153.4</ele>
        <time>2026-05-07T08:01:35Z</time>
      </trkpt>
      <trkpt lat="48.76798" lon="1.72152">
        <ele>153.9</ele>
        <time>2026-05-07T08:01:42Z</time>
      </trkpt>
      <trkpt lat="48.76807" lon="1.72148">
        <ele>154.4</ele>
        <time>2026-05-07T08:01:50Z</time>
      </trkpt>
      <trkpt lat="48.76817" lon="1.72145">
        <ele>154.7</ele>
        <time>2026-05-07T08:01:58Z</time>
      </trkpt>
      <trkpt lat="48.76826" lon="1.72142">
        <ele>154.9</ele>
        <time>2026-05-07T08:02:13Z</time>
      </trkpt>
      <trkpt lat="48.76836" lon="1.72141">
        <ele>155</ele>
        <time>2026-05-07T08:02:26Z</time>
      </trkpt>
      <trkpt lat="48.76845" lon="1.72137">
        <ele>154.4</ele>
        <time>2026-05-07T08:02:36Z</time>
      </trkpt>
      <trkpt lat="48.76854" lon="1.72136">
        <ele>154</ele>
        <time>2026-05-07T08:02:45Z</time>
      </trkpt>
      <trkpt lat="48.76862" lon="1.72127">
        <ele>153.1</ele>
        <time>2026-05-07T08:02:54Z</time>
      </trkpt>
      <trkpt lat="48.76871" lon="1.72119">
        <ele>152.2</ele>
        <time>2026-05-07T08:03:03Z</time>
      </trkpt>
      <trkpt lat="48.7688" lon="1.72113">
        <ele>151.4</ele>
        <time>2026-05-07T08:03:11Z</time>
      </trkpt>
      <trkpt lat="48.76889" lon="1.72107">
        <ele>150.9</ele>
        <time>2026-05-07T08:03:18Z</time>
      </trkpt>
      <trkpt lat="48.76897" lon="1.72102">
        <ele>151.5</ele>
        <time>2026-05-07T08:03:25Z</time>
      </trkpt>
      <trkpt lat="48.76906" lon="1.72095">
        <ele>151.9</ele>
        <time>2026-05-07T08:03:33Z</time>
      </trkpt>
      <trkpt lat="48.76914" lon="1.72088">
        <ele>152.1</ele>
        <time>2026-05-07T08:03:41Z</time>
      </trkpt>
      <trkpt lat="48.76922" lon="1.72081">
        <ele>150.8</ele>
        <time>2026-05-07T08:03:49Z</time>
      </trkpt>
      <trkpt lat="48.76931" lon="1.72076">
        <ele>148.9</ele>
        <time>2026-05-07T08:03:57Z</time>
      </trkpt>
      <trkpt lat="48.76939" lon="1.72072">
        <ele>147.1</ele>
        <time>2026-05-07T08:04:06Z</time>
      </trkpt>
      <trkpt lat="48.76948" lon="1.72067">
        <ele>145.7</ele>
        <time>2026-05-07T08:04:15Z</time>
      </trkpt>
      <trkpt lat="48.76957" lon="1.72063">
        <ele>145.3</ele>
        <time>2026-05-07T08:04:23Z</time>
      </trkpt>
      <trkpt lat="48.76965" lon="1.72055">
        <ele>145</ele>
        <time>2026-05-07T08:04:31Z</time>
      </trkpt>
      <trkpt lat="48.76973" lon="1.72048">
        <ele>144.8</ele>
        <time>2026-05-07T08:04:38Z</time>
      </trkpt>
      <trkpt lat="48.76983" lon="1.72043">
        <ele>145.2</ele>
        <time>2026-05-07T08:04:46Z</time>
      </trkpt>
      <trkpt lat="48.76992" lon="1.72037">
        <ele>145.3</ele>
        <time>2026-05-07T08:04:55Z</time>
      </trkpt>
      <trkpt lat="48.77002" lon="1.72032">
        <ele>145.5</ele>
        <time>2026-05-07T08:05:03Z</time>
      </trkpt>
      <trkpt lat="48.77011" lon="1.72026">
        <ele>145.7</ele>
        <time>2026-05-07T08:05:11Z</time>
      </trkpt>
      <trkpt lat="48.77019" lon="1.7202">
        <ele>145.9</ele>
        <time>2026-05-07T08:05:18Z</time>
      </trkpt>
      <trkpt lat="48.77027" lon="1.72014">
        <ele>146</ele>
        <time>2026-05-07T08:05:25Z</time>
      </trkpt>
      <trkpt lat="48.77037" lon="1.72008">
        <ele>146.3</ele>
        <time>2026-05-07T08:05:33Z</time>
      </trkpt>
      <trkpt lat="48.77046" lon="1.72001">
        <ele>146.4</ele>
        <time>2026-05-07T08:05:40Z</time>
      </trkpt>
      <trkpt lat="48.77054" lon="1.71994">
        <ele>146.7</ele>
        <time>2026-05-07T08:05:47Z</time>
      </trkpt>
      <trkpt lat="48.77064" lon="1.71989">
        <ele>148.1</ele>
        <time>2026-05-07T08:05:54Z</time>
      </trkpt>
      <trkpt lat="48.77072" lon="1.71982">
        <ele>149.1</ele>
        <time>2026-05-07T08:06:01Z</time>
      </trkpt>
      <trkpt lat="48.77081" lon="1.71977">
        <ele>150.2</ele>
        <time>2026-05-07T08:06:09Z</time>
      </trkpt>
      <trkpt lat="48.7709" lon="1.71972">
        <ele>151.5</ele>
        <time>2026-05-07T08:06:17Z</time>
      </trkpt>
      <trkpt lat="48.77099" lon="1.71966">
        <ele>152.9</ele>
        <time>2026-05-07T08:06:25Z</time>
      </trkpt>
      <trkpt lat="48.77108" lon="1.71962">
        <ele>154.6</ele>
        <time>2026-05-07T08:06:33Z</time>
      </trkpt>
      <trkpt lat="48.77117" lon="1.71955">
        <ele>156.3</ele>
        <time>2026-05-07T08:06:41Z</time>
      </trkpt>
      <trkpt lat="48.77124" lon="1.71947">
        <ele>157.9</ele>
        <time>2026-05-07T08:06:49Z</time>
      </trkpt>
      <trkpt lat="48.77133" lon="1.71941">
        <ele>160</ele>
        <time>2026-05-07T08:06:59Z</time>
      </trkpt>
      <trkpt lat="48.77141" lon="1.71936">
        <ele>161.9</ele>
        <time>2026-05-07T08:07:09Z</time>
      </trkpt>
      <trkpt lat="48.7715" lon="1.7193">
        <ele>163.4</ele>
        <time>2026-05-07T08:07:19Z</time>
      </trkpt>
      <trkpt lat="48.77159" lon="1.71923">
        <ele>164.7</ele>
        <time>2026-05-07T08:07:29Z</time>
      </trkpt>
      <trkpt lat="48.77167" lon="1.71919">
        <ele>166.2</ele>
        <time>2026-05-07T08:07:38Z</time>
      </trkpt>
      <trkpt lat="48.77176" lon="1.71913">
        <ele>165.9</ele>
        <time>2026-05-07T08:07:49Z</time>
      </trkpt>
      <trkpt lat="48.77184" lon="1.71906">
        <ele>165.4</ele>
        <time>2026-05-07T08:07:57Z</time>
      </trkpt>
      <trkpt lat="48.77193" lon="1.71899">
        <ele>165.1</ele>
        <time>2026-05-07T08:08:05Z</time>
      </trkpt>
      <trkpt lat="48.77203" lon="1.71895">
        <ele>163.8</ele>
        <time>2026-05-07T08:08:12Z</time>
      </trkpt>
      <trkpt lat="48.77212" lon="1.7189">
        <ele>162.3</ele>
        <time>2026-05-07T08:08:18Z</time>
      </trkpt>
      <trkpt lat="48.7722" lon="1.71883">
        <ele>160.8</ele>
        <time>2026-05-07T08:08:25Z</time>
      </trkpt>
      <trkpt lat="48.77228" lon="1.71874">
        <ele>159.2</ele>
        <time>2026-05-07T08:08:33Z</time>
      </trkpt>
      <trkpt lat="48.77238" lon="1.7187">
        <ele>157.8</ele>
        <time>2026-05-07T08:08:41Z</time>
      </trkpt>
      <trkpt lat="48.77248" lon="1.71865">
        <ele>155.9</ele>
        <time>2026-05-07T08:08:49Z</time>
      </trkpt>
      <trkpt lat="48.77255" lon="1.71858">
        <ele>154.9</ele>
        <time>2026-05-07T08:08:56Z</time>
      </trkpt>
      <trkpt lat="48.77263" lon="1.71849">
        <ele>154.3</ele>
        <time>2026-05-07T08:09:04Z</time>
      </trkpt>
      <trkpt lat="48.77273" lon="1.71847">
        <ele>154.4</ele>
        <time>2026-05-07T08:09:13Z</time>
      </trkpt>
      <trkpt lat="48.77281" lon="1.71841">
        <ele>154.5</ele>
        <time>2026-05-07T08:09:21Z</time>
      </trkpt>
      <trkpt lat="48.77288" lon="1.71831">
        <ele>154.6</ele>
        <time>2026-05-07T08:09:29Z</time>
      </trkpt>
      <trkpt lat="48.77296" lon="1.71824">
        <ele>155.1</ele>
        <time>2026-05-07T08:09:37Z</time>
      </trkpt>
      <trkpt lat="48.77303" lon="1.71815">
        <ele>155.1</ele>
        <time>2026-05-07T08:09:45Z</time>
      </trkpt>
      <trkpt lat="48.77313" lon="1.7181">
        <ele>156.2</ele>
        <time>2026-05-07T08:10:00Z</time>
      </trkpt>
      <trkpt lat="48.77322" lon="1.71804">
        <ele>157.4</ele>
        <time>2026-05-07T08:10:08Z</time>
      </trkpt>
      <trkpt lat="48.77331" lon="1.718">
        <ele>158.9</ele>
        <time>2026-05-07T08:10:17Z</time>
      </trkpt>
      <trkpt lat="48.77338" lon="1.7179">
        <ele>159.3</ele>
        <time>2026-05-07T08:10:24Z</time>
      </trkpt>
      <trkpt lat="48.77346" lon="1.71782">
        <ele>159.8</ele>
        <time>2026-05-07T08:10:32Z</time>
      </trkpt>
      <trkpt lat="48.77355" lon="1.71775">
        <ele>160.7</ele>
        <time>2026-05-07T08:10:41Z</time>
      </trkpt>
      <trkpt lat="48.77364" lon="1.71766">
        <ele>161.1</ele>
        <time>2026-05-07T08:10:49Z</time>
      </trkpt>
      <trkpt lat="48.77373" lon="1.71761">
        <ele>161.9</ele>
        <time>2026-05-07T08:10:56Z</time>
      </trkpt>
      <trkpt lat="48.77381" lon="1.71753">
        <ele>162.2</ele>
        <time>2026-05-07T08:11:02Z</time>
      </trkpt>
      <trkpt lat="48.77391" lon="1.71746">
        <ele>162.7</ele>
        <time>2026-05-07T08:11:10Z</time>
      </trkpt>
      <trkpt lat="48.77399" lon="1.71741">
        <ele>162.5</ele>
        <time>2026-05-07T08:11:18Z</time>
      </trkpt>
      <trkpt lat="48.77408" lon="1.71734">
        <ele>162.3</ele>
        <time>2026-05-07T08:11:26Z</time>
      </trkpt>
      <trkpt lat="48.77416" lon="1.71727">
        <ele>162.3</ele>
        <time>2026-05-07T08:11:33Z</time>
      </trkpt>
      <trkpt lat="48.77425" lon="1.71727">
        <ele>161.7</ele>
        <time>2026-05-07T08:11:40Z</time>
      </trkpt>
      <trkpt lat="48.7743" lon="1.71739">
        <ele>162.3</ele>
        <time>2026-05-07T08:11:47Z</time>
      </trkpt>
      <trkpt lat="48.77433" lon="1.71752">
        <ele>163.1</ele>
        <time>2026-05-07T08:11:55Z</time>
      </trkpt>
      <trkpt lat="48.77435" lon="1.71766">
        <ele>164</ele>
        <time>2026-05-07T08:12:02Z</time>
      </trkpt>
      <trkpt lat="48.77438" lon="1.71779">
        <ele>164.8</ele>
        <time>2026-05-07T08:12:09Z</time>
      </trkpt>
      <trkpt lat="48.77441" lon="1.71793">
        <ele>166</ele>
        <time>2026-05-07T08:12:16Z</time>
      </trkpt>
      <trkpt lat="48.77444" lon="1.71806">
        <ele>167</ele>
        <time>2026-05-07T08:12:23Z</time>
      </trkpt>
      <trkpt lat="48.77446" lon="1.71821">
        <ele>167.7</ele>
        <time>2026-05-07T08:12:29Z</time>
      </trkpt>
      <trkpt lat="48.77448" lon="1.71836">
        <ele>168.6</ele>
        <time>2026-05-07T08:12:36Z</time>
      </trkpt>
      <trkpt lat="48.77449" lon="1.71851">
        <ele>169.4</ele>
        <time>2026-05-07T08:12:43Z</time>
      </trkpt>
      <trkpt lat="48.77449" lon="1.71864">
        <ele>170.2</ele>
        <time>2026-05-07T08:12:50Z</time>
      </trkpt>
      <trkpt lat="48.77446" lon="1.71878">
        <ele>171.2</ele>
        <time>2026-05-07T08:12:57Z</time>
      </trkpt>
      <trkpt lat="48.77442" lon="1.71891">
        <ele>172.3</ele>
        <time>2026-05-07T08:13:05Z</time>
      </trkpt>
      <trkpt lat="48.77437" lon="1.71903">
        <ele>173.2</ele>
        <time>2026-05-07T08:13:13Z</time>
      </trkpt>
      <trkpt lat="48.77432" lon="1.71916">
        <ele>174.2</ele>
        <time>2026-05-07T08:13:21Z</time>
      </trkpt>
      <trkpt lat="48.77427" lon="1.71929">
        <ele>175.2</ele>
        <time>2026-05-07T08:13:29Z</time>
      </trkpt>
      <trkpt lat="48.77422" lon="1.71942">
        <ele>176</ele>
        <time>2026-05-07T08:13:37Z</time>
      </trkpt>
      <trkpt lat="48.77421" lon="1.71956">
        <ele>176.6</ele>
        <time>2026-05-07T08:13:45Z</time>
      </trkpt>
      <trkpt lat="48.77414" lon="1.71965">
        <ele>178</ele>
        <time>2026-05-07T08:13:54Z</time>
      </trkpt>
      <trkpt lat="48.77408" lon="1.71954">
        <ele>178.3</ele>
        <time>2026-05-07T08:14:03Z</time>
      </trkpt>
      <trkpt lat="48.77402" lon="1.71943">
        <ele>178.5</ele>
        <time>2026-05-07T08:14:12Z</time>
      </trkpt>
      <trkpt lat="48.77409" lon="1.71955">
        <ele>178.2</ele>
        <time>2026-05-07T08:15:12Z</time>
      </trkpt>
      <trkpt lat="48.77417" lon="1.71962">
        <ele>177.5</ele>
        <time>2026-05-07T08:15:25Z</time>
      </trkpt>
      <trkpt lat="48.77418" lon="1.71976">
        <ele>177.9</ele>
        <time>2026-05-07T08:16:54Z</time>
      </trkpt>
      <trkpt lat="48.77418" lon="1.7199">
        <ele>178.4</ele>
        <time>2026-05-07T08:17:20Z</time>
      </trkpt>
      <trkpt lat="48.7742" lon="1.72005">
        <ele>178.7</ele>
        <time>2026-05-07T08:17:30Z</time>
      </trkpt>
      <trkpt lat="48.77422" lon="1.72019">
        <ele>179.1</ele>
        <time>2026-05-07T08:17:41Z</time>
      </trkpt>
      <trkpt lat="48.77422" lon="1.72032">
        <ele>179.5</ele>
        <time>2026-05-07T08:17:50Z</time>
      </trkpt>
      <trkpt lat="48.77423" lon="1.72047">
        <ele>179.5</ele>
        <time>2026-05-07T08:17:58Z</time>
      </trkpt>
      <trkpt lat="48.77423" lon="1.72061">
        <ele>179.7</ele>
        <time>2026-05-07T08:18:06Z</time>
      </trkpt>
      <trkpt lat="48.77423" lon="1.72075">
        <ele>180.2</ele>
        <time>2026-05-07T08:18:15Z</time>
      </trkpt>
      <trkpt lat="48.77421" lon="1.72089">
        <ele>180.7</ele>
        <time>2026-05-07T08:18:23Z</time>
      </trkpt>
      <trkpt lat="48.77419" lon="1.72103">
        <ele>180.9</ele>
        <time>2026-05-07T08:18:31Z</time>
      </trkpt>
      <trkpt lat="48.77416" lon="1.72117">
        <ele>181</ele>
        <time>2026-05-07T08:18:39Z</time>
      </trkpt>
      <trkpt lat="48.77413" lon="1.72132">
        <ele>181</ele>
        <time>2026-05-07T08:18:47Z</time>
      </trkpt>
      <trkpt lat="48.7741" lon="1.72146">
        <ele>180.8</ele>
        <time>2026-05-07T08:18:55Z</time>
      </trkpt>
      <trkpt lat="48.77406" lon="1.72159">
        <ele>180.5</ele>
        <time>2026-05-07T08:19:03Z</time>
      </trkpt>
      <trkpt lat="48.77404" lon="1.72173">
        <ele>180.3</ele>
        <time>2026-05-07T08:19:12Z</time>
      </trkpt>
      <trkpt lat="48.77401" lon="1.72187">
        <ele>180.1</ele>
        <time>2026-05-07T08:19:21Z</time>
      </trkpt>
      <trkpt lat="48.77399" lon="1.72201">
        <ele>180</ele>
        <time>2026-05-07T08:19:29Z</time>
      </trkpt>
      <trkpt lat="48.77396" lon="1.72215">
        <ele>180</ele>
        <time>2026-05-07T08:19:37Z</time>
      </trkpt>
      <trkpt lat="48.77393" lon="1.72229">
        <ele>180</ele>
        <time>2026-05-07T08:19:45Z</time>
      </trkpt>
      <trkpt lat="48.7739" lon="1.72243">
        <ele>180</ele>
        <time>2026-05-07T08:19:53Z</time>
      </trkpt>
      <trkpt lat="48.77388" lon="1.72257">
        <ele>180</ele>
        <time>2026-05-07T08:20:01Z</time>
      </trkpt>
      <trkpt lat="48.77387" lon="1.72272">
        <ele>180</ele>
        <time>2026-05-07T08:20:09Z</time>
      </trkpt>
      <trkpt lat="48.77385" lon="1.72286">
        <ele>180</ele>
        <time>2026-05-07T08:20:17Z</time>
      </trkpt>
      <trkpt lat="48.77383" lon="1.723">
        <ele>180</ele>
        <time>2026-05-07T08:20:25Z</time>
      </trkpt>
      <trkpt lat="48.77382" lon="1.72314">
        <ele>180</ele>
        <time>2026-05-07T08:20:33Z</time>
      </trkpt>
      <trkpt lat="48.77381" lon="1.72328">
        <ele>180</ele>
        <time>2026-05-07T08:20:41Z</time>
      </trkpt>
      <trkpt lat="48.77378" lon="1.72342">
        <ele>180.3</ele>
        <time>2026-05-07T08:20:49Z</time>
      </trkpt>
      <trkpt lat="48.77377" lon="1.72356">
        <ele>180.8</ele>
        <time>2026-05-07T08:20:57Z</time>
      </trkpt>
      <trkpt lat="48.77375" lon="1.7237">
        <ele>181</ele>
        <time>2026-05-07T08:21:04Z</time>
      </trkpt>
      <trkpt lat="48.77375" lon="1.72384">
        <ele>181</ele>
        <time>2026-05-07T08:21:12Z</time>
      </trkpt>
      <trkpt lat="48.77375" lon="1.72399">
        <ele>181</ele>
        <time>2026-05-07T08:21:20Z</time>
      </trkpt>
      <trkpt lat="48.77376" lon="1.72413">
        <ele>181</ele>
        <time>2026-05-07T08:21:28Z</time>
      </trkpt>
      <trkpt lat="48.77375" lon="1.72429">
        <ele>181</ele>
        <time>2026-05-07T08:21:36Z</time>
      </trkpt>
      <trkpt lat="48.77375" lon="1.72442">
        <ele>181</ele>
        <time>2026-05-07T08:21:43Z</time>
      </trkpt>
      <trkpt lat="48.77375" lon="1.72456">
        <ele>181</ele>
        <time>2026-05-07T08:21:50Z</time>
      </trkpt>
      <trkpt lat="48.77375" lon="1.7247">
        <ele>181</ele>
        <time>2026-05-07T08:21:57Z</time>
      </trkpt>
      <trkpt lat="48.77374" lon="1.72483">
        <ele>181</ele>
        <time>2026-05-07T08:22:03Z</time>
      </trkpt>
      <trkpt lat="48.77375" lon="1.72498">
        <ele>181</ele>
        <time>2026-05-07T08:22:10Z</time>
      </trkpt>
      <trkpt lat="48.77375" lon="1.72513">
        <ele>181</ele>
        <time>2026-05-07T08:22:18Z</time>
      </trkpt>
      <trkpt lat="48.77375" lon="1.72528">
        <ele>181</ele>
        <time>2026-05-07T08:22:27Z</time>
      </trkpt>
      <trkpt lat="48.77375" lon="1.72543">
        <ele>181</ele>
        <time>2026-05-07T08:22:40Z</time>
      </trkpt>
      <trkpt lat="48.77377" lon="1.72557">
        <ele>181</ele>
        <time>2026-05-07T08:22:49Z</time>
      </trkpt>
      <trkpt lat="48.77382" lon="1.72568">
        <ele>181</ele>
        <time>2026-05-07T08:22:58Z</time>
      </trkpt>
      <trkpt lat="48.77387" lon="1.72582">
        <ele>181</ele>
        <time>2026-05-07T08:23:06Z</time>
      </trkpt>
      <trkpt lat="48.77393" lon="1.72595">
        <ele>181</ele>
        <time>2026-05-07T08:23:13Z</time>
      </trkpt>
      <trkpt lat="48.77399" lon="1.72608">
        <ele>181</ele>
        <time>2026-05-07T08:23:21Z</time>
      </trkpt>
      <trkpt lat="48.77404" lon="1.72619">
        <ele>181</ele>
        <time>2026-05-07T08:23:29Z</time>
      </trkpt>
      <trkpt lat="48.77409" lon="1.72633">
        <ele>181</ele>
        <time>2026-05-07T08:23:37Z</time>
      </trkpt>
      <trkpt lat="48.77413" lon="1.72645">
        <ele>181</ele>
        <time>2026-05-07T08:23:44Z</time>
      </trkpt>
      <trkpt lat="48.77416" lon="1.72658">
        <ele>181</ele>
        <time>2026-05-07T08:23:50Z</time>
      </trkpt>
      <trkpt lat="48.77421" lon="1.72669">
        <ele>181</ele>
        <time>2026-05-07T08:23:57Z</time>
      </trkpt>
      <trkpt lat="48.77427" lon="1.72681">
        <ele>181</ele>
        <time>2026-05-07T08:24:05Z</time>
      </trkpt>
      <trkpt lat="48.77431" lon="1.72695">
        <ele>181</ele>
        <time>2026-05-07T08:24:13Z</time>
      </trkpt>
      <trkpt lat="48.77436" lon="1.72709">
        <ele>181</ele>
        <time>2026-05-07T08:24:21Z</time>
      </trkpt>
      <trkpt lat="48.77441" lon="1.72721">
        <ele>181</ele>
        <time>2026-05-07T08:24:28Z</time>
      </trkpt>
      <trkpt lat="48.77446" lon="1.72734">
        <ele>181</ele>
        <time>2026-05-07T08:24:35Z</time>
      </trkpt>
      <trkpt lat="48.77451" lon="1.72746">
        <ele>181</ele>
        <time>2026-05-07T08:24:42Z</time>
      </trkpt>
      <trkpt lat="48.77456" lon="1.72757">
        <ele>181</ele>
        <time>2026-05-07T08:24:49Z</time>
      </trkpt>
      <trkpt lat="48.7746" lon="1.7277">
        <ele>181</ele>
        <time>2026-05-07T08:24:56Z</time>
      </trkpt>
      <trkpt lat="48.77464" lon="1.72783">
        <ele>181</ele>
        <time>2026-05-07T08:25:04Z</time>
      </trkpt>
      <trkpt lat="48.77469" lon="1.72795">
        <ele>181</ele>
        <time>2026-05-07T08:25:11Z</time>
      </trkpt>
      <trkpt lat="48.77473" lon="1.72807">
        <ele>181</ele>
        <time>2026-05-07T08:25:18Z</time>
      </trkpt>
      <trkpt lat="48.77477" lon="1.7282">
        <ele>181.1</ele>
        <time>2026-05-07T08:25:25Z</time>
      </trkpt>
      <trkpt lat="48.77481" lon="1.72832">
        <ele>181.3</ele>
        <time>2026-05-07T08:25:32Z</time>
      </trkpt>
      <trkpt lat="48.77485" lon="1.72846">
        <ele>181.5</ele>
        <time>2026-05-07T08:25:39Z</time>
      </trkpt>
      <trkpt lat="48.7749" lon="1.72858">
        <ele>181.6</ele>
        <time>2026-05-07T08:25:46Z</time>
      </trkpt>
      <trkpt lat="48.77495" lon="1.72872">
        <ele>181.8</ele>
        <time>2026-05-07T08:25:54Z</time>
      </trkpt>
      <trkpt lat="48.775" lon="1.72883">
        <ele>182</ele>
        <time>2026-05-07T08:26:01Z</time>
      </trkpt>
      <trkpt lat="48.77504" lon="1.72897">
        <ele>182</ele>
        <time>2026-05-07T08:26:08Z</time>
      </trkpt>
      <trkpt lat="48.77509" lon="1.7291">
        <ele>182</ele>
        <time>2026-05-07T08:26:15Z</time>
      </trkpt>
      <trkpt lat="48.77514" lon="1.72922">
        <ele>182</ele>
        <time>2026-05-07T08:26:22Z</time>
      </trkpt>
      <trkpt lat="48.77518" lon="1.72936">
        <ele>182</ele>
        <time>2026-05-07T08:26:29Z</time>
      </trkpt>
      <trkpt lat="48.77522" lon="1.72948">
        <ele>182</ele>
        <time>2026-05-07T08:26:36Z</time>
      </trkpt>
      <trkpt lat="48.77527" lon="1.72961">
        <ele>182</ele>
        <time>2026-05-07T08:26:43Z</time>
      </trkpt>
      <trkpt lat="48.77531" lon="1.72974">
        <ele>182</ele>
        <time>2026-05-07T08:26:50Z</time>
      </trkpt>
      <trkpt lat="48.77536" lon="1.72987">
        <ele>182</ele>
        <time>2026-05-07T08:26:58Z</time>
      </trkpt>
      <trkpt lat="48.7754" lon="1.72999">
        <ele>182</ele>
        <time>2026-05-07T08:27:05Z</time>
      </trkpt>
      <trkpt lat="48.77544" lon="1.73013">
        <ele>182</ele>
        <time>2026-05-07T08:27:13Z</time>
      </trkpt>
      <trkpt lat="48.77549" lon="1.73026">
        <ele>182</ele>
        <time>2026-05-07T08:27:20Z</time>
      </trkpt>
      <trkpt lat="48.77553" lon="1.73038">
        <ele>182</ele>
        <time>2026-05-07T08:27:26Z</time>
      </trkpt>
      <trkpt lat="48.77558" lon="1.73051">
        <ele>182</ele>
        <time>2026-05-07T08:27:33Z</time>
      </trkpt>
      <trkpt lat="48.77564" lon="1.73063">
        <ele>182</ele>
        <time>2026-05-07T08:27:41Z</time>
      </trkpt>
      <trkpt lat="48.77568" lon="1.73077">
        <ele>182</ele>
        <time>2026-05-07T08:27:48Z</time>
      </trkpt>
      <trkpt lat="48.77572" lon="1.73091">
        <ele>182</ele>
        <time>2026-05-07T08:27:55Z</time>
      </trkpt>
      <trkpt lat="48.77576" lon="1.73104">
        <ele>182</ele>
        <time>2026-05-07T08:28:02Z</time>
      </trkpt>
      <trkpt lat="48.77581" lon="1.73115">
        <ele>182</ele>
        <time>2026-05-07T08:28:09Z</time>
      </trkpt>
      <trkpt lat="48.77586" lon="1.73128">
        <ele>182</ele>
        <time>2026-05-07T08:28:16Z</time>
      </trkpt>
      <trkpt lat="48.7759" lon="1.7314">
        <ele>182</ele>
        <time>2026-05-07T08:28:23Z</time>
      </trkpt>
      <trkpt lat="48.77595" lon="1.73153">
        <ele>182</ele>
        <time>2026-05-07T08:28:30Z</time>
      </trkpt>
      <trkpt lat="48.776" lon="1.73165">
        <ele>182</ele>
        <time>2026-05-07T08:28:37Z</time>
      </trkpt>
      <trkpt lat="48.77605" lon="1.73177">
        <ele>182.1</ele>
        <time>2026-05-07T08:28:44Z</time>
      </trkpt>
      <trkpt lat="48.7761" lon="1.7319">
        <ele>182</ele>
        <time>2026-05-07T08:28:51Z</time>
      </trkpt>
      <trkpt lat="48.77614" lon="1.73204">
        <ele>182.3</ele>
        <time>2026-05-07T08:28:58Z</time>
      </trkpt>
      <trkpt lat="48.77619" lon="1.73216">
        <ele>182.6</ele>
        <time>2026-05-07T08:29:05Z</time>
      </trkpt>
      <trkpt lat="48.77624" lon="1.73229">
        <ele>182.5</ele>
        <time>2026-05-07T08:29:13Z</time>
      </trkpt>
      <trkpt lat="48.77628" lon="1.73241">
        <ele>182.4</ele>
        <time>2026-05-07T08:29:22Z</time>
      </trkpt>
      <trkpt lat="48.77632" lon="1.73254">
        <ele>182.2</ele>
        <time>2026-05-07T08:29:34Z</time>
      </trkpt>
      <trkpt lat="48.77641" lon="1.7326">
        <ele>182</ele>
        <time>2026-05-07T08:30:27Z</time>
      </trkpt>
      <trkpt lat="48.77643" lon="1.73246">
        <ele>182</ele>
        <time>2026-05-07T08:30:37Z</time>
      </trkpt>
      <trkpt lat="48.77645" lon="1.73232">
        <ele>182</ele>
        <time>2026-05-07T08:30:44Z</time>
      </trkpt>
      <trkpt lat="48.77646" lon="1.73218">
        <ele>182</ele>
        <time>2026-05-07T08:31:07Z</time>
      </trkpt>
      <trkpt lat="48.77647" lon="1.73204">
        <ele>182</ele>
        <time>2026-05-07T08:31:23Z</time>
      </trkpt>
      <trkpt lat="48.77648" lon="1.7319">
        <ele>182</ele>
        <time>2026-05-07T08:31:33Z</time>
      </trkpt>
      <trkpt lat="48.7765" lon="1.73176">
        <ele>182</ele>
        <time>2026-05-07T08:31:39Z</time>
      </trkpt>
      <trkpt lat="48.77652" lon="1.73162">
        <ele>182</ele>
        <time>2026-05-07T08:31:47Z</time>
      </trkpt>
      <trkpt lat="48.77653" lon="1.73148">
        <ele>182</ele>
        <time>2026-05-07T08:31:54Z</time>
      </trkpt>
      <trkpt lat="48.77656" lon="1.73135">
        <ele>182</ele>
        <time>2026-05-07T08:32:01Z</time>
      </trkpt>
      <trkpt lat="48.77659" lon="1.73121">
        <ele>182</ele>
        <time>2026-05-07T08:32:08Z</time>
      </trkpt>
      <trkpt lat="48.7766" lon="1.73108">
        <ele>182</ele>
        <time>2026-05-07T08:32:15Z</time>
      </trkpt>
      <trkpt lat="48.77662" lon="1.73092">
        <ele>182</ele>
        <time>2026-05-07T08:32:22Z</time>
      </trkpt>
      <trkpt lat="48.77664" lon="1.73078">
        <ele>181.8</ele>
        <time>2026-05-07T08:32:29Z</time>
      </trkpt>
      <trkpt lat="48.77666" lon="1.73064">
        <ele>181.3</ele>
        <time>2026-05-07T08:32:36Z</time>
      </trkpt>
      <trkpt lat="48.77668" lon="1.73048">
        <ele>181</ele>
        <time>2026-05-07T08:32:44Z</time>
      </trkpt>
      <trkpt lat="48.7767" lon="1.73034">
        <ele>181</ele>
        <time>2026-05-07T08:32:51Z</time>
      </trkpt>
      <trkpt lat="48.77672" lon="1.73019">
        <ele>181</ele>
        <time>2026-05-07T08:32:58Z</time>
      </trkpt>
      <trkpt lat="48.77673" lon="1.73005">
        <ele>181</ele>
        <time>2026-05-07T08:33:05Z</time>
      </trkpt>
      <trkpt lat="48.77674" lon="1.72991">
        <ele>181</ele>
        <time>2026-05-07T08:33:12Z</time>
      </trkpt>
      <trkpt lat="48.77676" lon="1.72978">
        <ele>181</ele>
        <time>2026-05-07T08:33:18Z</time>
      </trkpt>
      <trkpt lat="48.77678" lon="1.72963">
        <ele>181</ele>
        <time>2026-05-07T08:33:25Z</time>
      </trkpt>
      <trkpt lat="48.7768" lon="1.72948">
        <ele>181</ele>
        <time>2026-05-07T08:33:32Z</time>
      </trkpt>
      <trkpt lat="48.77683" lon="1.72934">
        <ele>181</ele>
        <time>2026-05-07T08:33:39Z</time>
      </trkpt>
      <trkpt lat="48.77685" lon="1.7292">
        <ele>181</ele>
        <time>2026-05-07T08:33:46Z</time>
      </trkpt>
      <trkpt lat="48.77686" lon="1.72906">
        <ele>181</ele>
        <time>2026-05-07T08:33:52Z</time>
      </trkpt>
      <trkpt lat="48.77688" lon="1.72892">
        <ele>181</ele>
        <time>2026-05-07T08:33:59Z</time>
      </trkpt>
      <trkpt lat="48.77691" lon="1.72878">
        <ele>181</ele>
        <time>2026-05-07T08:34:06Z</time>
      </trkpt>
      <trkpt lat="48.77693" lon="1.72863">
        <ele>181</ele>
        <time>2026-05-07T08:34:13Z</time>
      </trkpt>
      <trkpt lat="48.77695" lon="1.7285">
        <ele>181</ele>
        <time>2026-05-07T08:34:20Z</time>
      </trkpt>
      <trkpt lat="48.77696" lon="1.72836">
        <ele>181</ele>
        <time>2026-05-07T08:34:27Z</time>
      </trkpt>
      <trkpt lat="48.77699" lon="1.72822">
        <ele>181</ele>
        <time>2026-05-07T08:34:35Z</time>
      </trkpt>
      <trkpt lat="48.77701" lon="1.72807">
        <ele>181</ele>
        <time>2026-05-07T08:34:44Z</time>
      </trkpt>
      <trkpt lat="48.77701" lon="1.72792">
        <ele>181</ele>
        <time>2026-05-07T08:34:52Z</time>
      </trkpt>
      <trkpt lat="48.77703" lon="1.72778">
        <ele>181</ele>
        <time>2026-05-07T08:35:00Z</time>
      </trkpt>
      <trkpt lat="48.77706" lon="1.72763">
        <ele>181</ele>
        <time>2026-05-07T08:35:08Z</time>
      </trkpt>
      <trkpt lat="48.77709" lon="1.72748">
        <ele>181</ele>
        <time>2026-05-07T08:35:15Z</time>
      </trkpt>
      <trkpt lat="48.77709" lon="1.72733">
        <ele>181</ele>
        <time>2026-05-07T08:35:21Z</time>
      </trkpt>
      <trkpt lat="48.77712" lon="1.7272">
        <ele>181</ele>
        <time>2026-05-07T08:35:28Z</time>
      </trkpt>
      <trkpt lat="48.77713" lon="1.72706">
        <ele>181</ele>
        <time>2026-05-07T08:35:35Z</time>
      </trkpt>
      <trkpt lat="48.77715" lon="1.7269">
        <ele>181</ele>
        <time>2026-05-07T08:35:42Z</time>
      </trkpt>
      <trkpt lat="48.77717" lon="1.72675">
        <ele>181</ele>
        <time>2026-05-07T08:35:49Z</time>
      </trkpt>
      <trkpt lat="48.77719" lon="1.72661">
        <ele>181</ele>
        <time>2026-05-07T08:35:56Z</time>
      </trkpt>
      <trkpt lat="48.77722" lon="1.72647">
        <ele>181</ele>
        <time>2026-05-07T08:36:03Z</time>
      </trkpt>
      <trkpt lat="48.77724" lon="1.72633">
        <ele>181</ele>
        <time>2026-05-07T08:36:10Z</time>
      </trkpt>
      <trkpt lat="48.77725" lon="1.72619">
        <ele>181</ele>
        <time>2026-05-07T08:36:18Z</time>
      </trkpt>
      <trkpt lat="48.77727" lon="1.72604">
        <ele>181</ele>
        <time>2026-05-07T08:36:26Z</time>
      </trkpt>
      <trkpt lat="48.7773" lon="1.72591">
        <ele>181</ele>
        <time>2026-05-07T08:36:33Z</time>
      </trkpt>
      <trkpt lat="48.77731" lon="1.72576">
        <ele>181</ele>
        <time>2026-05-07T08:36:40Z</time>
      </trkpt>
      <trkpt lat="48.77732" lon="1.72561">
        <ele>181</ele>
        <time>2026-05-07T08:36:47Z</time>
      </trkpt>
      <trkpt lat="48.77734" lon="1.72547">
        <ele>181</ele>
        <time>2026-05-07T08:36:54Z</time>
      </trkpt>
      <trkpt lat="48.77736" lon="1.72533">
        <ele>181</ele>
        <time>2026-05-07T08:37:01Z</time>
      </trkpt>
      <trkpt lat="48.77738" lon="1.72518">
        <ele>181</ele>
        <time>2026-05-07T08:37:08Z</time>
      </trkpt>
      <trkpt lat="48.77741" lon="1.72505">
        <ele>181</ele>
        <time>2026-05-07T08:37:15Z</time>
      </trkpt>
      <trkpt lat="48.77742" lon="1.7249">
        <ele>181</ele>
        <time>2026-05-07T08:37:22Z</time>
      </trkpt>
      <trkpt lat="48.77745" lon="1.72477">
        <ele>181</ele>
        <time>2026-05-07T08:37:29Z</time>
      </trkpt>
      <trkpt lat="48.77746" lon="1.72462">
        <ele>181</ele>
        <time>2026-05-07T08:37:36Z</time>
      </trkpt>
      <trkpt lat="48.77746" lon="1.72448">
        <ele>181</ele>
        <time>2026-05-07T08:37:43Z</time>
      </trkpt>
      <trkpt lat="48.77745" lon="1.72434">
        <ele>181</ele>
        <time>2026-05-07T08:37:50Z</time>
      </trkpt>
      <trkpt lat="48.77745" lon="1.72419">
        <ele>181</ele>
        <time>2026-05-07T08:37:58Z</time>
      </trkpt>
      <trkpt lat="48.77748" lon="1.72405">
        <ele>181</ele>
        <time>2026-05-07T08:38:06Z</time>
      </trkpt>
      <trkpt lat="48.77751" lon="1.72392">
        <ele>181</ele>
        <time>2026-05-07T08:38:15Z</time>
      </trkpt>
      <trkpt lat="48.77752" lon="1.72378">
        <ele>181</ele>
        <time>2026-05-07T08:38:23Z</time>
      </trkpt>
      <trkpt lat="48.77758" lon="1.72365">
        <ele>181</ele>
        <time>2026-05-07T08:38:32Z</time>
      </trkpt>
      <trkpt lat="48.77759" lon="1.72352">
        <ele>181</ele>
        <time>2026-05-07T08:38:40Z</time>
      </trkpt>
      <trkpt lat="48.77762" lon="1.72338">
        <ele>181</ele>
        <time>2026-05-07T08:38:47Z</time>
      </trkpt>
      <trkpt lat="48.77764" lon="1.72324">
        <ele>181</ele>
        <time>2026-05-07T08:38:54Z</time>
      </trkpt>
      <trkpt lat="48.77766" lon="1.72309">
        <ele>181</ele>
        <time>2026-05-07T08:39:02Z</time>
      </trkpt>
      <trkpt lat="48.77768" lon="1.72294">
        <ele>181</ele>
        <time>2026-05-07T08:39:10Z</time>
      </trkpt>
      <trkpt lat="48.7777" lon="1.7228">
        <ele>181</ele>
        <time>2026-05-07T08:39:17Z</time>
      </trkpt>
      <trkpt lat="48.77773" lon="1.72265">
        <ele>181</ele>
        <time>2026-05-07T08:39:24Z</time>
      </trkpt>
      <trkpt lat="48.77774" lon="1.72251">
        <ele>181</ele>
        <time>2026-05-07T08:39:31Z</time>
      </trkpt>
      <trkpt lat="48.77776" lon="1.72237">
        <ele>180.6</ele>
        <time>2026-05-07T08:39:38Z</time>
      </trkpt>
      <trkpt lat="48.77778" lon="1.72223">
        <ele>180</ele>
        <time>2026-05-07T08:39:45Z</time>
      </trkpt>
      <trkpt lat="48.77778" lon="1.72209">
        <ele>180</ele>
        <time>2026-05-07T08:39:53Z</time>
      </trkpt>
      <trkpt lat="48.77776" lon="1.72195">
        <ele>180</ele>
        <time>2026-05-07T08:40:04Z</time>
      </trkpt>
      <trkpt lat="48.77779" lon="1.72182">
        <ele>180</ele>
        <time>2026-05-07T08:40:12Z</time>
      </trkpt>
      <trkpt lat="48.77782" lon="1.72169">
        <ele>180</ele>
        <time>2026-05-07T08:40:19Z</time>
      </trkpt>
      <trkpt lat="48.77786" lon="1.72156">
        <ele>180</ele>
        <time>2026-05-07T08:40:26Z</time>
      </trkpt>
      <trkpt lat="48.77789" lon="1.72142">
        <ele>180</ele>
        <time>2026-05-07T08:40:34Z</time>
      </trkpt>
      <trkpt lat="48.7779" lon="1.72126">
        <ele>180</ele>
        <time>2026-05-07T08:40:42Z</time>
      </trkpt>
      <trkpt lat="48.77792" lon="1.72112">
        <ele>180</ele>
        <time>2026-05-07T08:40:50Z</time>
      </trkpt>
      <trkpt lat="48.77792" lon="1.72097">
        <ele>180</ele>
        <time>2026-05-07T08:40:59Z</time>
      </trkpt>
      <trkpt lat="48.77795" lon="1.72084">
        <ele>180</ele>
        <time>2026-05-07T08:41:06Z</time>
      </trkpt>
      <trkpt lat="48.77798" lon="1.72069">
        <ele>180</ele>
        <time>2026-05-07T08:41:15Z</time>
      </trkpt>
      <trkpt lat="48.778" lon="1.72055">
        <ele>180</ele>
        <time>2026-05-07T08:41:23Z</time>
      </trkpt>
      <trkpt lat="48.77803" lon="1.72042">
        <ele>180</ele>
        <time>2026-05-07T08:41:30Z</time>
      </trkpt>
      <trkpt lat="48.77806" lon="1.72029">
        <ele>180</ele>
        <time>2026-05-07T08:41:37Z</time>
      </trkpt>
      <trkpt lat="48.77808" lon="1.72015">
        <ele>180</ele>
        <time>2026-05-07T08:41:44Z</time>
      </trkpt>
      <trkpt lat="48.77809" lon="1.72">
        <ele>180</ele>
        <time>2026-05-07T08:41:52Z</time>
      </trkpt>
      <trkpt lat="48.77811" lon="1.71987">
        <ele>180</ele>
        <time>2026-05-07T08:41:59Z</time>
      </trkpt>
      <trkpt lat="48.77812" lon="1.71973">
        <ele>180</ele>
        <time>2026-05-07T08:42:06Z</time>
      </trkpt>
      <trkpt lat="48.77814" lon="1.71959">
        <ele>180</ele>
        <time>2026-05-07T08:42:13Z</time>
      </trkpt>
      <trkpt lat="48.77816" lon="1.71944">
        <ele>180</ele>
        <time>2026-05-07T08:42:21Z</time>
      </trkpt>
      <trkpt lat="48.77818" lon="1.71928">
        <ele>180</ele>
        <time>2026-05-07T08:42:28Z</time>
      </trkpt>
      <trkpt lat="48.77819" lon="1.71914">
        <ele>180</ele>
        <time>2026-05-07T08:42:35Z</time>
      </trkpt>
      <trkpt lat="48.77821" lon="1.719">
        <ele>180</ele>
        <time>2026-05-07T08:42:43Z</time>
      </trkpt>
      <trkpt lat="48.7782" lon="1.71885">
        <ele>179.9</ele>
        <time>2026-05-07T08:42:51Z</time>
      </trkpt>
      <trkpt lat="48.77821" lon="1.71871">
        <ele>179.6</ele>
        <time>2026-05-07T08:42:59Z</time>
      </trkpt>
      <trkpt lat="48.77819" lon="1.71857">
        <ele>179.3</ele>
        <time>2026-05-07T08:43:07Z</time>
      </trkpt>
      <trkpt lat="48.77816" lon="1.71842">
        <ele>178.8</ele>
        <time>2026-05-07T08:43:18Z</time>
      </trkpt>
      <trkpt lat="48.77815" lon="1.71828">
        <ele>178.4</ele>
        <time>2026-05-07T08:43:50Z</time>
      </trkpt>
      <trkpt lat="48.77814" lon="1.71815">
        <ele>177.9</ele>
        <time>2026-05-07T08:43:59Z</time>
      </trkpt>
      <trkpt lat="48.77811" lon="1.718">
        <ele>177.9</ele>
        <time>2026-05-07T08:44:07Z</time>
      </trkpt>
      <trkpt lat="48.77807" lon="1.71786">
        <ele>178</ele>
        <time>2026-05-07T08:44:15Z</time>
      </trkpt>
      <trkpt lat="48.77803" lon="1.71772">
        <ele>177.6</ele>
        <time>2026-05-07T08:44:24Z</time>
      </trkpt>
      <trkpt lat="48.77799" lon="1.71759">
        <ele>176.5</ele>
        <time>2026-05-07T08:44:32Z</time>
      </trkpt>
      <trkpt lat="48.77793" lon="1.71748">
        <ele>175.6</ele>
        <time>2026-05-07T08:44:40Z</time>
      </trkpt>
      <trkpt lat="48.77791" lon="1.71734">
        <ele>174.4</ele>
        <time>2026-05-07T08:44:49Z</time>
      </trkpt>
      <trkpt lat="48.77788" lon="1.71721">
        <ele>173.1</ele>
        <time>2026-05-07T08:44:58Z</time>
      </trkpt>
      <trkpt lat="48.77785" lon="1.71707">
        <ele>171.8</ele>
        <time>2026-05-07T08:45:08Z</time>
      </trkpt>
      <trkpt lat="48.77781" lon="1.71694">
        <ele>170.7</ele>
        <time>2026-05-07T08:45:18Z</time>
      </trkpt>
      <trkpt lat="48.77778" lon="1.7168">
        <ele>168.9</ele>
        <time>2026-05-07T08:45:28Z</time>
      </trkpt>
      <trkpt lat="48.77775" lon="1.71666">
        <ele>166.9</ele>
        <time>2026-05-07T08:45:38Z</time>
      </trkpt>
      <trkpt lat="48.77772" lon="1.71652">
        <ele>165.8</ele>
        <time>2026-05-07T08:45:47Z</time>
      </trkpt>
      <trkpt lat="48.77771" lon="1.71637">
        <ele>164.6</ele>
        <time>2026-05-07T08:45:58Z</time>
      </trkpt>
      <trkpt lat="48.77768" lon="1.71622">
        <ele>163.4</ele>
        <time>2026-05-07T08:46:07Z</time>
      </trkpt>
      <trkpt lat="48.77764" lon="1.71608">
        <ele>162.4</ele>
        <time>2026-05-07T08:46:16Z</time>
      </trkpt>
      <trkpt lat="48.77764" lon="1.71594">
        <ele>161.6</ele>
        <time>2026-05-07T08:46:25Z</time>
      </trkpt>
      <trkpt lat="48.77763" lon="1.7158">
        <ele>160.8</ele>
        <time>2026-05-07T08:46:33Z</time>
      </trkpt>
      <trkpt lat="48.7776" lon="1.71566">
        <ele>160</ele>
        <time>2026-05-07T08:46:41Z</time>
      </trkpt>
      <trkpt lat="48.77756" lon="1.71552">
        <ele>159.1</ele>
        <time>2026-05-07T08:46:49Z</time>
      </trkpt>
      <trkpt lat="48.77754" lon="1.71538">
        <ele>158.4</ele>
        <time>2026-05-07T08:46:57Z</time>
      </trkpt>
      <trkpt lat="48.77751" lon="1.71524">
        <ele>157.7</ele>
        <time>2026-05-07T08:47:06Z</time>
      </trkpt>
      <trkpt lat="48.77756" lon="1.71511">
        <ele>156.8</ele>
        <time>2026-05-07T08:47:14Z</time>
      </trkpt>
      <trkpt lat="48.77764" lon="1.71502">
        <ele>156.2</ele>
        <time>2026-05-07T08:47:21Z</time>
      </trkpt>
      <trkpt lat="48.77771" lon="1.71492">
        <ele>155.6</ele>
        <time>2026-05-07T08:47:28Z</time>
      </trkpt>
      <trkpt lat="48.77777" lon="1.7148">
        <ele>155.3</ele>
        <time>2026-05-07T08:47:36Z</time>
      </trkpt>
      <trkpt lat="48.77783" lon="1.71469">
        <ele>154.8</ele>
        <time>2026-05-07T08:47:43Z</time>
      </trkpt>
      <trkpt lat="48.77789" lon="1.71458">
        <ele>154.2</ele>
        <time>2026-05-07T08:47:50Z</time>
      </trkpt>
      <trkpt lat="48.77795" lon="1.71446">
        <ele>153.7</ele>
        <time>2026-05-07T08:47:58Z</time>
      </trkpt>
      <trkpt lat="48.77801" lon="1.71435">
        <ele>153.5</ele>
        <time>2026-05-07T08:48:05Z</time>
      </trkpt>
      <trkpt lat="48.7781" lon="1.71431">
        <ele>153.8</ele>
        <time>2026-05-07T08:48:13Z</time>
      </trkpt>
      <trkpt lat="48.77815" lon="1.71418">
        <ele>153.7</ele>
        <time>2026-05-07T08:48:20Z</time>
      </trkpt>
      <trkpt lat="48.7782" lon="1.71406">
        <ele>153.9</ele>
        <time>2026-05-07T08:48:27Z</time>
      </trkpt>
      <trkpt lat="48.77829" lon="1.71398">
        <ele>154.1</ele>
        <time>2026-05-07T08:48:36Z</time>
      </trkpt>
      <trkpt lat="48.77833" lon="1.71385">
        <ele>153.9</ele>
        <time>2026-05-07T08:48:43Z</time>
      </trkpt>
      <trkpt lat="48.77838" lon="1.71372">
        <ele>153.6</ele>
        <time>2026-05-07T08:48:50Z</time>
      </trkpt>
      <trkpt lat="48.77845" lon="1.71363">
        <ele>153.5</ele>
        <time>2026-05-07T08:48:57Z</time>
      </trkpt>
      <trkpt lat="48.77851" lon="1.7135">
        <ele>153.2</ele>
        <time>2026-05-07T08:49:04Z</time>
      </trkpt>
      <trkpt lat="48.77856" lon="1.71339">
        <ele>153</ele>
        <time>2026-05-07T08:49:11Z</time>
      </trkpt>
      <trkpt lat="48.77863" lon="1.71327">
        <ele>152.5</ele>
        <time>2026-05-07T08:49:19Z</time>
      </trkpt>
      <trkpt lat="48.77869" lon="1.71316">
        <ele>151.7</ele>
        <time>2026-05-07T08:49:26Z</time>
      </trkpt>
      <trkpt lat="48.77873" lon="1.71304">
        <ele>150.9</ele>
        <time>2026-05-07T08:49:35Z</time>
      </trkpt>
      <trkpt lat="48.7788" lon="1.71294">
        <ele>150.3</ele>
        <time>2026-05-07T08:49:42Z</time>
      </trkpt>
      <trkpt lat="48.77888" lon="1.71285">
        <ele>149.5</ele>
        <time>2026-05-07T08:49:50Z</time>
      </trkpt>
      <trkpt lat="48.77894" lon="1.71274">
        <ele>148.9</ele>
        <time>2026-05-07T08:49:57Z</time>
      </trkpt>
      <trkpt lat="48.77894" lon="1.7126">
        <ele>148.5</ele>
        <time>2026-05-07T08:50:04Z</time>
      </trkpt>
      <trkpt lat="48.77902" lon="1.71251">
        <ele>148.5</ele>
        <time>2026-05-07T08:50:12Z</time>
      </trkpt>
      <trkpt lat="48.77909" lon="1.71241">
        <ele>148.4</ele>
        <time>2026-05-07T08:50:19Z</time>
      </trkpt>
      <trkpt lat="48.77915" lon="1.7123">
        <ele>148.2</ele>
        <time>2026-05-07T08:50:26Z</time>
      </trkpt>
      <trkpt lat="48.77921" lon="1.71219">
        <ele>148</ele>
        <time>2026-05-07T08:50:33Z</time>
      </trkpt>
      <trkpt lat="48.77927" lon="1.71209">
        <ele>147.7</ele>
        <time>2026-05-07T08:50:40Z</time>
      </trkpt>
      <trkpt lat="48.77934" lon="1.71199">
        <ele>147.3</ele>
        <time>2026-05-07T08:50:47Z</time>
      </trkpt>
      <trkpt lat="48.7794" lon="1.71188">
        <ele>146.8</ele>
        <time>2026-05-07T08:50:55Z</time>
      </trkpt>
      <trkpt lat="48.77945" lon="1.71176">
        <ele>146.3</ele>
        <time>2026-05-07T08:51:03Z</time>
      </trkpt>
      <trkpt lat="48.77943" lon="1.71163">
        <ele>145.7</ele>
        <time>2026-05-07T08:51:10Z</time>
      </trkpt>
      <trkpt lat="48.77937" lon="1.7115">
        <ele>145</ele>
        <time>2026-05-07T08:51:17Z</time>
      </trkpt>
      <trkpt lat="48.77932" lon="1.71137">
        <ele>144.4</ele>
        <time>2026-05-07T08:51:24Z</time>
      </trkpt>
      <trkpt lat="48.77926" lon="1.71125">
        <ele>144.2</ele>
        <time>2026-05-07T08:51:31Z</time>
      </trkpt>
      <trkpt lat="48.77921" lon="1.71112">
        <ele>143.9</ele>
        <time>2026-05-07T08:51:38Z</time>
      </trkpt>
      <trkpt lat="48.77915" lon="1.71101">
        <ele>144.1</ele>
        <time>2026-05-07T08:51:45Z</time>
      </trkpt>
      <trkpt lat="48.77909" lon="1.71089">
        <ele>144.3</ele>
        <time>2026-05-07T08:51:52Z</time>
      </trkpt>
      <trkpt lat="48.77904" lon="1.71078">
        <ele>144.3</ele>
        <time>2026-05-07T08:51:59Z</time>
      </trkpt>
      <trkpt lat="48.77899" lon="1.71067">
        <ele>144</ele>
        <time>2026-05-07T08:52:06Z</time>
      </trkpt>
      <trkpt lat="48.77894" lon="1.71055">
        <ele>143.8</ele>
        <time>2026-05-07T08:52:13Z</time>
      </trkpt>
      <trkpt lat="48.77889" lon="1.71043">
        <ele>144</ele>
        <time>2026-05-07T08:52:20Z</time>
      </trkpt>
      <trkpt lat="48.77884" lon="1.71031">
        <ele>143.8</ele>
        <time>2026-05-07T08:52:27Z</time>
      </trkpt>
      <trkpt lat="48.77879" lon="1.71019">
        <ele>143.4</ele>
        <time>2026-05-07T08:52:34Z</time>
      </trkpt>
      <trkpt lat="48.77873" lon="1.71006">
        <ele>143.1</ele>
        <time>2026-05-07T08:52:41Z</time>
      </trkpt>
      <trkpt lat="48.77867" lon="1.70994">
        <ele>142.8</ele>
        <time>2026-05-07T08:52:48Z</time>
      </trkpt>
      <trkpt lat="48.77862" lon="1.70981">
        <ele>142.3</ele>
        <time>2026-05-07T08:52:55Z</time>
      </trkpt>
      <trkpt lat="48.77856" lon="1.70968">
        <ele>141.7</ele>
        <time>2026-05-07T08:53:02Z</time>
      </trkpt>
      <trkpt lat="48.7785" lon="1.70955">
        <ele>141</ele>
        <time>2026-05-07T08:53:09Z</time>
      </trkpt>
      <trkpt lat="48.77846" lon="1.70943">
        <ele>140.4</ele>
        <time>2026-05-07T08:53:16Z</time>
      </trkpt>
      <trkpt lat="48.77841" lon="1.70931">
        <ele>139.6</ele>
        <time>2026-05-07T08:53:24Z</time>
      </trkpt>
      <trkpt lat="48.77837" lon="1.70918">
        <ele>139</ele>
        <time>2026-05-07T08:53:31Z</time>
      </trkpt>
      <trkpt lat="48.7783" lon="1.70906">
        <ele>138.5</ele>
        <time>2026-05-07T08:53:39Z</time>
      </trkpt>
      <trkpt lat="48.77824" lon="1.70895">
        <ele>138.1</ele>
        <time>2026-05-07T08:53:46Z</time>
      </trkpt>
      <trkpt lat="48.77819" lon="1.70884">
        <ele>137.9</ele>
        <time>2026-05-07T08:53:53Z</time>
      </trkpt>
      <trkpt lat="48.77813" lon="1.70871">
        <ele>137.5</ele>
        <time>2026-05-07T08:54:01Z</time>
      </trkpt>
      <trkpt lat="48.77807" lon="1.70859">
        <ele>137.1</ele>
        <time>2026-05-07T08:54:08Z</time>
      </trkpt>
      <trkpt lat="48.77801" lon="1.70848">
        <ele>136.8</ele>
        <time>2026-05-07T08:54:15Z</time>
      </trkpt>
      <trkpt lat="48.77793" lon="1.7084">
        <ele>136.5</ele>
        <time>2026-05-07T08:54:23Z</time>
      </trkpt>
      <trkpt lat="48.77785" lon="1.70832">
        <ele>136.2</ele>
        <time>2026-05-07T08:54:30Z</time>
      </trkpt>
      <trkpt lat="48.77777" lon="1.70826">
        <ele>135.7</ele>
        <time>2026-05-07T08:54:37Z</time>
      </trkpt>
      <trkpt lat="48.77769" lon="1.70819">
        <ele>135.2</ele>
        <time>2026-05-07T08:54:43Z</time>
      </trkpt>
      <trkpt lat="48.7776" lon="1.70811">
        <ele>134.6</ele>
        <time>2026-05-07T08:54:50Z</time>
      </trkpt>
      <trkpt lat="48.77751" lon="1.70803">
        <ele>134</ele>
        <time>2026-05-07T08:54:57Z</time>
      </trkpt>
      <trkpt lat="48.77742" lon="1.70795">
        <ele>133.7</ele>
        <time>2026-05-07T08:55:04Z</time>
      </trkpt>
      <trkpt lat="48.77734" lon="1.70787">
        <ele>133.4</ele>
        <time>2026-05-07T08:55:11Z</time>
      </trkpt>
      <trkpt lat="48.77726" lon="1.70779">
        <ele>133.1</ele>
        <time>2026-05-07T08:55:17Z</time>
      </trkpt>
      <trkpt lat="48.77717" lon="1.70771">
        <ele>132.8</ele>
        <time>2026-05-07T08:55:24Z</time>
      </trkpt>
      <trkpt lat="48.7771" lon="1.70763">
        <ele>132.5</ele>
        <time>2026-05-07T08:55:30Z</time>
      </trkpt>
      <trkpt lat="48.77701" lon="1.70754">
        <ele>132.2</ele>
        <time>2026-05-07T08:55:37Z</time>
      </trkpt>
      <trkpt lat="48.77693" lon="1.70748">
        <ele>131.8</ele>
        <time>2026-05-07T08:55:43Z</time>
      </trkpt>
      <trkpt lat="48.77684" lon="1.7074">
        <ele>131</ele>
        <time>2026-05-07T08:55:50Z</time>
      </trkpt>
      <trkpt lat="48.77676" lon="1.70732">
        <ele>130.4</ele>
        <time>2026-05-07T08:55:56Z</time>
      </trkpt>
      <trkpt lat="48.77667" lon="1.70725">
        <ele>130</ele>
        <time>2026-05-07T08:56:03Z</time>
      </trkpt>
      <trkpt lat="48.77658" lon="1.70717">
        <ele>129.7</ele>
        <time>2026-05-07T08:56:10Z</time>
      </trkpt>
      <trkpt lat="48.7765" lon="1.70711">
        <ele>129.4</ele>
        <time>2026-05-07T08:56:16Z</time>
      </trkpt>
      <trkpt lat="48.77642" lon="1.70704">
        <ele>129.1</ele>
        <time>2026-05-07T08:56:22Z</time>
      </trkpt>
      <trkpt lat="48.77634" lon="1.70696">
        <ele>128.8</ele>
        <time>2026-05-07T08:56:28Z</time>
      </trkpt>
      <trkpt lat="48.77626" lon="1.70687">
        <ele>128.5</ele>
        <time>2026-05-07T08:56:35Z</time>
      </trkpt>
      <trkpt lat="48.77618" lon="1.7068">
        <ele>128.3</ele>
        <time>2026-05-07T08:56:41Z</time>
      </trkpt>
      <trkpt lat="48.77609" lon="1.70671">
        <ele>127.9</ele>
        <time>2026-05-07T08:56:48Z</time>
      </trkpt>
      <trkpt lat="48.776" lon="1.70665">
        <ele>127.6</ele>
        <time>2026-05-07T08:56:55Z</time>
      </trkpt>
      <trkpt lat="48.77591" lon="1.70657">
        <ele>127.3</ele>
        <time>2026-05-07T08:57:02Z</time>
      </trkpt>
      <trkpt lat="48.77582" lon="1.70648">
        <ele>127</ele>
        <time>2026-05-07T08:57:09Z</time>
      </trkpt>
      <trkpt lat="48.77574" lon="1.70641">
        <ele>126.7</ele>
        <time>2026-05-07T08:57:15Z</time>
      </trkpt>
      <trkpt lat="48.77567" lon="1.70633">
        <ele>126.3</ele>
        <time>2026-05-07T08:57:21Z</time>
      </trkpt>
      <trkpt lat="48.77558" lon="1.70626">
        <ele>125.6</ele>
        <time>2026-05-07T08:57:28Z</time>
      </trkpt>
      <trkpt lat="48.7755" lon="1.70619">
        <ele>125</ele>
        <time>2026-05-07T08:57:34Z</time>
      </trkpt>
      <trkpt lat="48.77541" lon="1.70611">
        <ele>124.5</ele>
        <time>2026-05-07T08:57:41Z</time>
      </trkpt>
      <trkpt lat="48.77533" lon="1.70602">
        <ele>124.2</ele>
        <time>2026-05-07T08:57:48Z</time>
      </trkpt>
      <trkpt lat="48.77524" lon="1.70593">
        <ele>123.9</ele>
        <time>2026-05-07T08:57:55Z</time>
      </trkpt>
      <trkpt lat="48.77516" lon="1.70586">
        <ele>123.6</ele>
        <time>2026-05-07T08:58:01Z</time>
      </trkpt>
      <trkpt lat="48.77508" lon="1.7058">
        <ele>123.3</ele>
        <time>2026-05-07T08:58:07Z</time>
      </trkpt>
      <trkpt lat="48.77499" lon="1.70575">
        <ele>123</ele>
        <time>2026-05-07T08:58:14Z</time>
      </trkpt>
      <trkpt lat="48.77491" lon="1.70569">
        <ele>122.7</ele>
        <time>2026-05-07T08:58:20Z</time>
      </trkpt>
      <trkpt lat="48.77482" lon="1.70563">
        <ele>122.3</ele>
        <time>2026-05-07T08:58:27Z</time>
      </trkpt>
      <trkpt lat="48.77473" lon="1.70558">
        <ele>122</ele>
        <time>2026-05-07T08:58:35Z</time>
      </trkpt>
      <trkpt lat="48.77464" lon="1.70553">
        <ele>121.7</ele>
        <time>2026-05-07T08:58:44Z</time>
      </trkpt>
      <trkpt lat="48.77456" lon="1.70544">
        <ele>121.4</ele>
        <time>2026-05-07T08:58:53Z</time>
      </trkpt>
      <trkpt lat="48.77447" lon="1.70537">
        <ele>121.1</ele>
        <time>2026-05-07T08:59:01Z</time>
      </trkpt>
      <trkpt lat="48.7744" lon="1.70529">
        <ele>120.7</ele>
        <time>2026-05-07T08:59:08Z</time>
      </trkpt>
      <trkpt lat="48.77432" lon="1.7052">
        <ele>120.1</ele>
        <time>2026-05-07T08:59:15Z</time>
      </trkpt>
      <trkpt lat="48.77423" lon="1.70512">
        <ele>119.5</ele>
        <time>2026-05-07T08:59:22Z</time>
      </trkpt>
      <trkpt lat="48.77415" lon="1.70503">
        <ele>118.8</ele>
        <time>2026-05-07T08:59:29Z</time>
      </trkpt>
      <trkpt lat="48.77406" lon="1.70495">
        <ele>117.9</ele>
        <time>2026-05-07T08:59:36Z</time>
      </trkpt>
      <trkpt lat="48.77397" lon="1.70488">
        <ele>116.8</ele>
        <time>2026-05-07T08:59:43Z</time>
      </trkpt>
      <trkpt lat="48.77388" lon="1.7048">
        <ele>116</ele>
        <time>2026-05-07T08:59:50Z</time>
      </trkpt>
      <trkpt lat="48.77378" lon="1.70475">
        <ele>115.6</ele>
        <time>2026-05-07T08:59:57Z</time>
      </trkpt>
      <trkpt lat="48.77369" lon="1.7047">
        <ele>115.3</ele>
        <time>2026-05-07T09:00:04Z</time>
      </trkpt>
      <trkpt lat="48.7736" lon="1.70466">
        <ele>115</ele>
        <time>2026-05-07T09:00:11Z</time>
      </trkpt>
      <trkpt lat="48.77351" lon="1.70468">
        <ele>115</ele>
        <time>2026-05-07T09:00:19Z</time>
      </trkpt>
      <trkpt lat="48.77342" lon="1.7047">
        <ele>115</ele>
        <time>2026-05-07T09:00:26Z</time>
      </trkpt>
      <trkpt lat="48.77332" lon="1.70471">
        <ele>115</ele>
        <time>2026-05-07T09:00:33Z</time>
      </trkpt>
      <trkpt lat="48.77323" lon="1.70472">
        <ele>115</ele>
        <time>2026-05-07T09:00:39Z</time>
      </trkpt>
      <trkpt lat="48.77314" lon="1.70472">
        <ele>115</ele>
        <time>2026-05-07T09:00:46Z</time>
      </trkpt>
      <trkpt lat="48.77304" lon="1.70474">
        <ele>114.9</ele>
        <time>2026-05-07T09:00:53Z</time>
      </trkpt>
      <trkpt lat="48.77295" lon="1.7047">
        <ele>114.6</ele>
        <time>2026-05-07T09:01:57Z</time>
      </trkpt>
      <trkpt lat="48.77286" lon="1.70469">
        <ele>114.3</ele>
        <time>2026-05-07T09:02:06Z</time>
      </trkpt>
      <trkpt lat="48.77276" lon="1.7047">
        <ele>114</ele>
        <time>2026-05-07T09:02:14Z</time>
      </trkpt>
      <trkpt lat="48.77266" lon="1.70469">
        <ele>114</ele>
        <time>2026-05-07T09:02:21Z</time>
      </trkpt>
      <trkpt lat="48.77257" lon="1.70469">
        <ele>114.1</ele>
        <time>2026-05-07T09:02:29Z</time>
      </trkpt>
      <trkpt lat="48.77247" lon="1.70471">
        <ele>114</ele>
        <time>2026-05-07T09:02:37Z</time>
      </trkpt>
      <trkpt lat="48.77237" lon="1.70471">
        <ele>114</ele>
        <time>2026-05-07T09:02:45Z</time>
      </trkpt>
      <trkpt lat="48.77228" lon="1.70469">
        <ele>113.9</ele>
        <time>2026-05-07T09:02:52Z</time>
      </trkpt>
      <trkpt lat="48.77219" lon="1.70467">
        <ele>113.7</ele>
        <time>2026-05-07T09:02:59Z</time>
      </trkpt>
      <trkpt lat="48.77209" lon="1.70467">
        <ele>113.3</ele>
        <time>2026-05-07T09:03:07Z</time>
      </trkpt>
      <trkpt lat="48.77199" lon="1.70467">
        <ele>113</ele>
        <time>2026-05-07T09:03:15Z</time>
      </trkpt>
      <trkpt lat="48.7719" lon="1.70466">
        <ele>112.9</ele>
        <time>2026-05-07T09:03:22Z</time>
      </trkpt>
      <trkpt lat="48.77181" lon="1.70467">
        <ele>113.2</ele>
        <time>2026-05-07T09:03:29Z</time>
      </trkpt>
      <trkpt lat="48.77171" lon="1.70465">
        <ele>113.4</ele>
        <time>2026-05-07T09:03:36Z</time>
      </trkpt>
      <trkpt lat="48.77161" lon="1.70465">
        <ele>113.5</ele>
        <time>2026-05-07T09:03:43Z</time>
      </trkpt>
      <trkpt lat="48.77151" lon="1.70465">
        <ele>113.6</ele>
        <time>2026-05-07T09:03:49Z</time>
      </trkpt>
      <trkpt lat="48.77141" lon="1.70466">
        <ele>113.8</ele>
        <time>2026-05-07T09:03:56Z</time>
      </trkpt>
      <trkpt lat="48.77132" lon="1.70468">
        <ele>113.8</ele>
        <time>2026-05-07T09:04:04Z</time>
      </trkpt>
      <trkpt lat="48.77123" lon="1.70468">
        <ele>113.8</ele>
        <time>2026-05-07T09:04:11Z</time>
      </trkpt>
      <trkpt lat="48.77113" lon="1.70466">
        <ele>113.8</ele>
        <time>2026-05-07T09:04:19Z</time>
      </trkpt>
      <trkpt lat="48.77103" lon="1.70466">
        <ele>113.5</ele>
        <time>2026-05-07T09:04:27Z</time>
      </trkpt>
      <trkpt lat="48.77093" lon="1.70465">
        <ele>113.3</ele>
        <time>2026-05-07T09:04:35Z</time>
      </trkpt>
      <trkpt lat="48.77084" lon="1.70465">
        <ele>113</ele>
        <time>2026-05-07T09:04:43Z</time>
      </trkpt>
      <trkpt lat="48.77074" lon="1.70469">
        <ele>113.3</ele>
        <time>2026-05-07T09:04:52Z</time>
      </trkpt>
      <trkpt lat="48.77065" lon="1.70465">
        <ele>113.7</ele>
        <time>2026-05-07T09:05:01Z</time>
      </trkpt>
      <trkpt lat="48.77055" lon="1.7046">
        <ele>114</ele>
        <time>2026-05-07T09:05:08Z</time>
      </trkpt>
      <trkpt lat="48.77048" lon="1.70451">
        <ele>114.5</ele>
        <time>2026-05-07T09:05:15Z</time>
      </trkpt>
      <trkpt lat="48.77038" lon="1.70451">
        <ele>115.1</ele>
        <time>2026-05-07T09:05:23Z</time>
      </trkpt>
      <trkpt lat="48.7703" lon="1.70457">
        <ele>115.4</ele>
        <time>2026-05-07T09:05:31Z</time>
      </trkpt>
      <trkpt lat="48.77023" lon="1.70467">
        <ele>115.5</ele>
        <time>2026-05-07T09:05:39Z</time>
      </trkpt>
      <trkpt lat="48.77017" lon="1.70477">
        <ele>115.7</ele>
        <time>2026-05-07T09:05:47Z</time>
      </trkpt>
      <trkpt lat="48.7701" lon="1.70489">
        <ele>115.9</ele>
        <time>2026-05-07T09:05:55Z</time>
      </trkpt>
      <trkpt lat="48.77002" lon="1.70499">
        <ele>116</ele>
        <time>2026-05-07T09:06:03Z</time>
      </trkpt>
      <trkpt lat="48.76996" lon="1.7051">
        <ele>116.2</ele>
        <time>2026-05-07T09:06:10Z</time>
      </trkpt>
      <trkpt lat="48.76988" lon="1.70519">
        <ele>116.6</ele>
        <time>2026-05-07T09:06:17Z</time>
      </trkpt>
      <trkpt lat="48.7698" lon="1.70529">
        <ele>116.7</ele>
        <time>2026-05-07T09:06:25Z</time>
      </trkpt>
      <trkpt lat="48.76974" lon="1.70539">
        <ele>116.9</ele>
        <time>2026-05-07T09:06:31Z</time>
      </trkpt>
      <trkpt lat="48.76967" lon="1.7055">
        <ele>117.2</ele>
        <time>2026-05-07T09:06:38Z</time>
      </trkpt>
      <trkpt lat="48.76961" lon="1.7056">
        <ele>117.2</ele>
        <time>2026-05-07T09:06:48Z</time>
      </trkpt>
      <trkpt lat="48.76954" lon="1.70569">
        <ele>117.2</ele>
        <time>2026-05-07T09:06:56Z</time>
      </trkpt>
      <trkpt lat="48.76947" lon="1.70578">
        <ele>117.1</ele>
        <time>2026-05-07T09:07:03Z</time>
      </trkpt>
      <trkpt lat="48.7694" lon="1.7059">
        <ele>117.1</ele>
        <time>2026-05-07T09:07:10Z</time>
      </trkpt>
      <trkpt lat="48.76933" lon="1.70599">
        <ele>117.4</ele>
        <time>2026-05-07T09:07:17Z</time>
      </trkpt>
      <trkpt lat="48.76925" lon="1.70609">
        <ele>117.7</ele>
        <time>2026-05-07T09:07:24Z</time>
      </trkpt>
      <trkpt lat="48.76918" lon="1.7062">
        <ele>117.6</ele>
        <time>2026-05-07T09:07:31Z</time>
      </trkpt>
      <trkpt lat="48.76911" lon="1.7063">
        <ele>117.5</ele>
        <time>2026-05-07T09:07:37Z</time>
      </trkpt>
      <trkpt lat="48.76905" lon="1.70641">
        <ele>117.4</ele>
        <time>2026-05-07T09:07:44Z</time>
      </trkpt>
      <trkpt lat="48.76898" lon="1.70651">
        <ele>117.7</ele>
        <time>2026-05-07T09:07:55Z</time>
      </trkpt>
      <trkpt lat="48.76892" lon="1.70661">
        <ele>117.9</ele>
        <time>2026-05-07T09:08:02Z</time>
      </trkpt>
      <trkpt lat="48.76884" lon="1.70672">
        <ele>118</ele>
        <time>2026-05-07T09:08:10Z</time>
      </trkpt>
      <trkpt lat="48.76877" lon="1.70682">
        <ele>117.9</ele>
        <time>2026-05-07T09:08:17Z</time>
      </trkpt>
      <trkpt lat="48.76871" lon="1.70694">
        <ele>117.7</ele>
        <time>2026-05-07T09:08:24Z</time>
      </trkpt>
      <trkpt lat="48.76863" lon="1.70704">
        <ele>117.9</ele>
        <time>2026-05-07T09:08:32Z</time>
      </trkpt>
      <trkpt lat="48.76856" lon="1.70712">
        <ele>118.1</ele>
        <time>2026-05-07T09:08:39Z</time>
      </trkpt>
      <trkpt lat="48.76849" lon="1.70722">
        <ele>118</ele>
        <time>2026-05-07T09:08:46Z</time>
      </trkpt>
      <trkpt lat="48.76842" lon="1.70732">
        <ele>117.9</ele>
        <time>2026-05-07T09:08:54Z</time>
      </trkpt>
      <trkpt lat="48.76835" lon="1.70743">
        <ele>118</ele>
        <time>2026-05-07T09:09:02Z</time>
      </trkpt>
      <trkpt lat="48.76828" lon="1.70754">
        <ele>117.9</ele>
        <time>2026-05-07T09:09:10Z</time>
      </trkpt>
      <trkpt lat="48.76821" lon="1.70763">
        <ele>117.7</ele>
        <time>2026-05-07T09:09:17Z</time>
      </trkpt>
      <trkpt lat="48.76814" lon="1.70773">
        <ele>117.7</ele>
        <time>2026-05-07T09:09:24Z</time>
      </trkpt>
      <trkpt lat="48.76808" lon="1.70783">
        <ele>117.9</ele>
        <time>2026-05-07T09:09:32Z</time>
      </trkpt>
      <trkpt lat="48.76802" lon="1.70795">
        <ele>118.1</ele>
        <time>2026-05-07T09:09:40Z</time>
      </trkpt>
      <trkpt lat="48.76795" lon="1.70804">
        <ele>118.4</ele>
        <time>2026-05-07T09:09:48Z</time>
      </trkpt>
      <trkpt lat="48.76787" lon="1.70813">
        <ele>118.4</ele>
        <time>2026-05-07T09:09:55Z</time>
      </trkpt>
      <trkpt lat="48.76781" lon="1.70824">
        <ele>118.3</ele>
        <time>2026-05-07T09:10:02Z</time>
      </trkpt>
      <trkpt lat="48.76774" lon="1.70833">
        <ele>118.2</ele>
        <time>2026-05-07T09:10:09Z</time>
      </trkpt>
      <trkpt lat="48.76766" lon="1.70842">
        <ele>118.3</ele>
        <time>2026-05-07T09:10:16Z</time>
      </trkpt>
      <trkpt lat="48.76759" lon="1.70854">
        <ele>118.2</ele>
        <time>2026-05-07T09:10:23Z</time>
      </trkpt>
      <trkpt lat="48.76754" lon="1.70865">
        <ele>118</ele>
        <time>2026-05-07T09:10:30Z</time>
      </trkpt>
      <trkpt lat="48.76747" lon="1.70875">
        <ele>118.1</ele>
        <time>2026-05-07T09:10:37Z</time>
      </trkpt>
      <trkpt lat="48.76746" lon="1.70891">
        <ele>118.1</ele>
        <time>2026-05-07T09:10:48Z</time>
      </trkpt>
      <trkpt lat="48.76737" lon="1.70891">
        <ele>118.5</ele>
        <time>2026-05-07T09:10:57Z</time>
      </trkpt>
      <trkpt lat="48.76729" lon="1.70896">
        <ele>118.8</ele>
        <time>2026-05-07T09:11:05Z</time>
      </trkpt>
      <trkpt lat="48.76724" lon="1.70909">
        <ele>119</ele>
        <time>2026-05-07T09:11:13Z</time>
      </trkpt>
      <trkpt lat="48.76715" lon="1.70917">
        <ele>119</ele>
        <time>2026-05-07T09:11:21Z</time>
      </trkpt>
      <trkpt lat="48.76709" lon="1.70929">
        <ele>118.8</ele>
        <time>2026-05-07T09:11:29Z</time>
      </trkpt>
      <trkpt lat="48.76702" lon="1.70939">
        <ele>118.8</ele>
        <time>2026-05-07T09:11:36Z</time>
      </trkpt>
      <trkpt lat="48.76695" lon="1.7095">
        <ele>118.8</ele>
        <time>2026-05-07T09:11:43Z</time>
      </trkpt>
      <trkpt lat="48.76688" lon="1.7096">
        <ele>118.6</ele>
        <time>2026-05-07T09:11:49Z</time>
      </trkpt>
      <trkpt lat="48.76681" lon="1.70971">
        <ele>118.5</ele>
        <time>2026-05-07T09:11:57Z</time>
      </trkpt>
      <trkpt lat="48.76675" lon="1.70981">
        <ele>118.4</ele>
        <time>2026-05-07T09:12:04Z</time>
      </trkpt>
      <trkpt lat="48.76668" lon="1.70991">
        <ele>118.3</ele>
        <time>2026-05-07T09:12:11Z</time>
      </trkpt>
      <trkpt lat="48.7666" lon="1.70999">
        <ele>118.2</ele>
        <time>2026-05-07T09:12:20Z</time>
      </trkpt>
      <trkpt lat="48.76653" lon="1.7101">
        <ele>118.1</ele>
        <time>2026-05-07T09:12:29Z</time>
      </trkpt>
      <trkpt lat="48.76647" lon="1.7102">
        <ele>118</ele>
        <time>2026-05-07T09:12:36Z</time>
      </trkpt>
      <trkpt lat="48.76639" lon="1.7103">
        <ele>118</ele>
        <time>2026-05-07T09:12:43Z</time>
      </trkpt>
      <trkpt lat="48.76632" lon="1.7104">
        <ele>118.1</ele>
        <time>2026-05-07T09:12:50Z</time>
      </trkpt>
      <trkpt lat="48.76625" lon="1.71049">
        <ele>118.1</ele>
        <time>2026-05-07T09:12:57Z</time>
      </trkpt>
      <trkpt lat="48.76617" lon="1.71057">
        <ele>118</ele>
        <time>2026-05-07T09:13:04Z</time>
      </trkpt>
      <trkpt lat="48.7661" lon="1.71066">
        <ele>118</ele>
        <time>2026-05-07T09:13:11Z</time>
      </trkpt>
      <trkpt lat="48.76604" lon="1.71077">
        <ele>118.3</ele>
        <time>2026-05-07T09:13:18Z</time>
      </trkpt>
      <trkpt lat="48.76595" lon="1.71084">
        <ele>118.6</ele>
        <time>2026-05-07T09:13:25Z</time>
      </trkpt>
      <trkpt lat="48.76587" lon="1.71092">
        <ele>118.6</ele>
        <time>2026-05-07T09:13:32Z</time>
      </trkpt>
      <trkpt lat="48.76579" lon="1.71098">
        <ele>118.6</ele>
        <time>2026-05-07T09:13:39Z</time>
      </trkpt>
      <trkpt lat="48.76571" lon="1.71106">
        <ele>118.6</ele>
        <time>2026-05-07T09:13:47Z</time>
      </trkpt>
      <trkpt lat="48.76564" lon="1.71116">
        <ele>118.5</ele>
        <time>2026-05-07T09:13:55Z</time>
      </trkpt>
      <trkpt lat="48.76554" lon="1.71122">
        <ele>118.7</ele>
        <time>2026-05-07T09:14:03Z</time>
      </trkpt>
      <trkpt lat="48.76545" lon="1.71129">
        <ele>118.7</ele>
        <time>2026-05-07T09:14:11Z</time>
      </trkpt>
      <trkpt lat="48.76539" lon="1.71139">
        <ele>118.6</ele>
        <time>2026-05-07T09:14:18Z</time>
      </trkpt>
      <trkpt lat="48.76533" lon="1.71149">
        <ele>118.5</ele>
        <time>2026-05-07T09:14:25Z</time>
      </trkpt>
      <trkpt lat="48.76525" lon="1.71158">
        <ele>118.4</ele>
        <time>2026-05-07T09:14:32Z</time>
      </trkpt>
      <trkpt lat="48.76518" lon="1.71169">
        <ele>118.3</ele>
        <time>2026-05-07T09:14:39Z</time>
      </trkpt>
      <trkpt lat="48.76512" lon="1.71181">
        <ele>118.3</ele>
        <time>2026-05-07T09:14:46Z</time>
      </trkpt>
      <trkpt lat="48.76507" lon="1.71193">
        <ele>118</ele>
        <time>2026-05-07T09:14:52Z</time>
      </trkpt>
      <trkpt lat="48.76502" lon="1.71204">
        <ele>118</ele>
        <time>2026-05-07T09:14:58Z</time>
      </trkpt>
      <trkpt lat="48.76499" lon="1.71218">
        <ele>118</ele>
        <time>2026-05-07T09:15:07Z</time>
      </trkpt>
      <trkpt lat="48.76496" lon="1.71231">
        <ele>117.8</ele>
        <time>2026-05-07T09:15:15Z</time>
      </trkpt>
      <trkpt lat="48.76488" lon="1.71238">
        <ele>117.9</ele>
        <time>2026-05-07T09:15:22Z</time>
      </trkpt>
      <trkpt lat="48.7648" lon="1.71244">
        <ele>118</ele>
        <time>2026-05-07T09:15:30Z</time>
      </trkpt>
      <trkpt lat="48.76472" lon="1.71254">
        <ele>117.9</ele>
        <time>2026-05-07T09:15:37Z</time>
      </trkpt>
      <trkpt lat="48.76466" lon="1.71265">
        <ele>117.7</ele>
        <time>2026-05-07T09:15:44Z</time>
      </trkpt>
      <trkpt lat="48.7646" lon="1.71277">
        <ele>117.5</ele>
        <time>2026-05-07T09:15:51Z</time>
      </trkpt>
      <trkpt lat="48.76452" lon="1.71287">
        <ele>117.6</ele>
        <time>2026-05-07T09:15:58Z</time>
      </trkpt>
      <trkpt lat="48.76445" lon="1.71297">
        <ele>118</ele>
        <time>2026-05-07T09:16:06Z</time>
      </trkpt>
      <trkpt lat="48.76438" lon="1.71309">
        <ele>117.9</ele>
        <time>2026-05-07T09:16:13Z</time>
      </trkpt>
      <trkpt lat="48.76432" lon="1.7132">
        <ele>117.5</ele>
        <time>2026-05-07T09:16:20Z</time>
      </trkpt>
      <trkpt lat="48.76426" lon="1.71332">
        <ele>117</ele>
        <time>2026-05-07T09:16:27Z</time>
      </trkpt>
      <trkpt lat="48.76422" lon="1.71346">
        <ele>117</ele>
        <time>2026-05-07T09:16:35Z</time>
      </trkpt>
      <trkpt lat="48.76418" lon="1.7136">
        <ele>117</ele>
        <time>2026-05-07T09:16:42Z</time>
      </trkpt>
      <trkpt lat="48.76416" lon="1.71374">
        <ele>117</ele>
        <time>2026-05-07T09:16:49Z</time>
      </trkpt>
      <trkpt lat="48.76416" lon="1.71388">
        <ele>117</ele>
        <time>2026-05-07T09:16:59Z</time>
      </trkpt>
      <trkpt lat="48.76408" lon="1.71397">
        <ele>117.2</ele>
        <time>2026-05-07T09:17:16Z</time>
      </trkpt>
      <trkpt lat="48.76404" lon="1.7141">
        <ele>117.1</ele>
        <time>2026-05-07T09:17:24Z</time>
      </trkpt>
      <trkpt lat="48.76398" lon="1.71422">
        <ele>117</ele>
        <time>2026-05-07T09:17:32Z</time>
      </trkpt>
      <trkpt lat="48.76392" lon="1.71434">
        <ele>117</ele>
        <time>2026-05-07T09:17:41Z</time>
      </trkpt>
      <trkpt lat="48.76387" lon="1.71446">
        <ele>116.9</ele>
        <time>2026-05-07T09:17:49Z</time>
      </trkpt>
      <trkpt lat="48.76381" lon="1.71458">
        <ele>116.6</ele>
        <time>2026-05-07T09:17:57Z</time>
      </trkpt>
      <trkpt lat="48.76375" lon="1.7147">
        <ele>116.6</ele>
        <time>2026-05-07T09:18:04Z</time>
      </trkpt>
      <trkpt lat="48.76369" lon="1.71481">
        <ele>116.7</ele>
        <time>2026-05-07T09:18:11Z</time>
      </trkpt>
      <trkpt lat="48.76364" lon="1.71492">
        <ele>116.9</ele>
        <time>2026-05-07T09:18:18Z</time>
      </trkpt>
      <trkpt lat="48.76361" lon="1.71505">
        <ele>117</ele>
        <time>2026-05-07T09:18:25Z</time>
      </trkpt>
      <trkpt lat="48.76358" lon="1.7152">
        <ele>117</ele>
        <time>2026-05-07T09:18:32Z</time>
      </trkpt>
      <trkpt lat="48.76357" lon="1.71533">
        <ele>117</ele>
        <time>2026-05-07T09:18:39Z</time>
      </trkpt>
      <trkpt lat="48.76354" lon="1.71547">
        <ele>117</ele>
        <time>2026-05-07T09:18:47Z</time>
      </trkpt>
      <trkpt lat="48.7635" lon="1.7156">
        <ele>117</ele>
        <time>2026-05-07T09:18:54Z</time>
      </trkpt>
      <trkpt lat="48.76347" lon="1.71574">
        <ele>117</ele>
        <time>2026-05-07T09:19:01Z</time>
      </trkpt>
      <trkpt lat="48.76345" lon="1.71588">
        <ele>117</ele>
        <time>2026-05-07T09:19:11Z</time>
      </trkpt>
      <trkpt lat="48.76341" lon="1.71602">
        <ele>117</ele>
        <time>2026-05-07T09:19:18Z</time>
      </trkpt>
      <trkpt lat="48.76338" lon="1.71616">
        <ele>117</ele>
        <time>2026-05-07T09:19:26Z</time>
      </trkpt>
      <trkpt lat="48.76336" lon="1.7163">
        <ele>117</ele>
        <time>2026-05-07T09:19:34Z</time>
      </trkpt>
      <trkpt lat="48.76334" lon="1.71644">
        <ele>117</ele>
        <time>2026-05-07T09:19:41Z</time>
      </trkpt>
      <trkpt lat="48.76331" lon="1.71658">
        <ele>117.1</ele>
        <time>2026-05-07T09:19:48Z</time>
      </trkpt>
      <trkpt lat="48.76329" lon="1.71671">
        <ele>117.1</ele>
        <time>2026-05-07T09:19:55Z</time>
      </trkpt>
      <trkpt lat="48.76332" lon="1.71685">
        <ele>117</ele>
        <time>2026-05-07T09:20:05Z</time>
      </trkpt>
      <trkpt lat="48.76328" lon="1.71698">
        <ele>117</ele>
        <time>2026-05-07T09:20:12Z</time>
      </trkpt>
      <trkpt lat="48.7632" lon="1.71706">
        <ele>117</ele>
        <time>2026-05-07T09:20:20Z</time>
      </trkpt>
      <trkpt lat="48.76318" lon="1.7172">
        <ele>117</ele>
        <time>2026-05-07T09:20:28Z</time>
      </trkpt>
      <trkpt lat="48.76315" lon="1.71733">
        <ele>117</ele>
        <time>2026-05-07T09:20:36Z</time>
      </trkpt>
      <trkpt lat="48.76311" lon="1.71746">
        <ele>117</ele>
        <time>2026-05-07T09:20:44Z</time>
      </trkpt>
      <trkpt lat="48.76309" lon="1.71761">
        <ele>117</ele>
        <time>2026-05-07T09:20:52Z</time>
      </trkpt>
      <trkpt lat="48.76306" lon="1.71775">
        <ele>117</ele>
        <time>2026-05-07T09:21:00Z</time>
      </trkpt>
      <trkpt lat="48.76303" lon="1.71788">
        <ele>117.1</ele>
        <time>2026-05-07T09:21:07Z</time>
      </trkpt>
      <trkpt lat="48.76302" lon="1.71803">
        <ele>117.1</ele>
        <time>2026-05-07T09:21:14Z</time>
      </trkpt>
      <trkpt lat="48.76309" lon="1.71812">
        <ele>117</ele>
        <time>2026-05-07T09:21:22Z</time>
      </trkpt>
      <trkpt lat="48.76318" lon="1.71817">
        <ele>117</ele>
        <time>2026-05-07T09:21:29Z</time>
      </trkpt>
      <trkpt lat="48.76325" lon="1.71826">
        <ele>117</ele>
        <time>2026-05-07T09:21:37Z</time>
      </trkpt>
      <trkpt lat="48.76335" lon="1.71828">
        <ele>117</ele>
        <time>2026-05-07T09:21:46Z</time>
      </trkpt>
      <trkpt lat="48.76344" lon="1.71825">
        <ele>117</ele>
        <time>2026-05-07T09:22:44Z</time>
      </trkpt>
      <trkpt lat="48.76353" lon="1.71828">
        <ele>117</ele>
        <time>2026-05-07T09:22:52Z</time>
      </trkpt>
      <trkpt lat="48.76363" lon="1.71831">
        <ele>117</ele>
        <time>2026-05-07T09:23:01Z</time>
      </trkpt>
      <trkpt lat="48.76365" lon="1.71845">
        <ele>117.2</ele>
        <time>2026-05-07T09:23:09Z</time>
      </trkpt>
      <trkpt lat="48.76371" lon="1.71856">
        <ele>117.6</ele>
        <time>2026-05-07T09:23:18Z</time>
      </trkpt>
      <trkpt lat="48.7638" lon="1.71855">
        <ele>118.2</ele>
        <time>2026-05-07T09:23:27Z</time>
      </trkpt>
      <trkpt lat="48.76389" lon="1.71861">
        <ele>119</ele>
        <time>2026-05-07T09:23:45Z</time>
      </trkpt>
      <trkpt lat="48.76398" lon="1.71864">
        <ele>120.8</ele>
        <time>2026-05-07T09:24:00Z</time>
      </trkpt>
      <trkpt lat="48.76406" lon="1.71873">
        <ele>122.5</ele>
        <time>2026-05-07T09:24:11Z</time>
      </trkpt>
      <trkpt lat="48.76414" lon="1.71881">
        <ele>124.2</ele>
        <time>2026-05-07T09:24:23Z</time>
      </trkpt>
      <trkpt lat="48.76423" lon="1.71884">
        <ele>125.4</ele>
        <time>2026-05-07T09:24:35Z</time>
      </trkpt>
      <trkpt lat="48.76429" lon="1.71894">
        <ele>126.5</ele>
        <time>2026-05-07T09:24:46Z</time>
      </trkpt>
      <trkpt lat="48.76431" lon="1.71908">
        <ele>127.2</ele>
        <time>2026-05-07T09:24:57Z</time>
      </trkpt>
      <trkpt lat="48.76431" lon="1.71922">
        <ele>127.7</ele>
        <time>2026-05-07T09:25:09Z</time>
      </trkpt>
      <trkpt lat="48.76435" lon="1.71934">
        <ele>128.4</ele>
        <time>2026-05-07T09:25:17Z</time>
      </trkpt>
      <trkpt lat="48.76441" lon="1.71945">
        <ele>129.5</ele>
        <time>2026-05-07T09:25:27Z</time>
      </trkpt>
      <trkpt lat="48.76445" lon="1.71959">
        <ele>130</ele>
        <time>2026-05-07T09:25:36Z</time>
      </trkpt>
      <trkpt lat="48.76447" lon="1.71972">
        <ele>130.1</ele>
        <time>2026-05-07T09:25:44Z</time>
      </trkpt>
      <trkpt lat="48.76451" lon="1.71985">
        <ele>130.2</ele>
        <time>2026-05-07T09:25:52Z</time>
      </trkpt>
      <trkpt lat="48.76455" lon="1.71999">
        <ele>130.4</ele>
        <time>2026-05-07T09:26:00Z</time>
      </trkpt>
      <trkpt lat="48.76459" lon="1.72013">
        <ele>130.3</ele>
        <time>2026-05-07T09:26:08Z</time>
      </trkpt>
      <trkpt lat="48.76463" lon="1.72025">
        <ele>130.4</ele>
        <time>2026-05-07T09:26:15Z</time>
      </trkpt>
      <trkpt lat="48.76465" lon="1.72039">
        <ele>130.9</ele>
        <time>2026-05-07T09:26:22Z</time>
      </trkpt>
      <trkpt lat="48.7647" lon="1.72053">
        <ele>131.7</ele>
        <time>2026-05-07T09:26:30Z</time>
      </trkpt>
      <trkpt lat="48.76473" lon="1.72067">
        <ele>132</ele>
        <time>2026-05-07T09:26:38Z</time>
      </trkpt>
      <trkpt lat="48.76477" lon="1.7208">
        <ele>132.2</ele>
        <time>2026-05-07T09:26:45Z</time>
      </trkpt>
      <trkpt lat="48.7648" lon="1.72093">
        <ele>132.3</ele>
        <time>2026-05-07T09:26:52Z</time>
      </trkpt>
      <trkpt lat="48.76484" lon="1.72106">
        <ele>132.4</ele>
        <time>2026-05-07T09:26:59Z</time>
      </trkpt>
      <trkpt lat="48.76487" lon="1.7212">
        <ele>132.5</ele>
        <time>2026-05-07T09:27:07Z</time>
      </trkpt>
      <trkpt lat="48.76491" lon="1.72133">
        <ele>132.7</ele>
        <time>2026-05-07T09:27:16Z</time>
      </trkpt>
      <trkpt lat="48.76494" lon="1.72146">
        <ele>132.7</ele>
        <time>2026-05-07T09:27:23Z</time>
      </trkpt>
      <trkpt lat="48.76498" lon="1.7216">
        <ele>132.9</ele>
        <time>2026-05-07T09:27:33Z</time>
      </trkpt>
      <trkpt lat="48.76503" lon="1.72171">
        <ele>133.4</ele>
        <time>2026-05-07T09:27:45Z</time>
      </trkpt>
      <trkpt lat="48.76513" lon="1.72175">
        <ele>134.5</ele>
        <time>2026-05-07T09:28:24Z</time>
      </trkpt>
    </trkseg>
  </trk>
</gpx>